<?xml version="1.0" encoding="UTF-8" standalone="no" ?>
<gpx xmlns="http://www.topografix.com/GPX/1/1" xmlns:xsi="http://www.w3.org/2001/XMLSchema-instance" xsi:schemaLocation="http://www.topografix.com/GPX/1/1 http://www.topografix.com/GPX/1/1/gpx.xsd" version="1.1" creator="VisuGPX - https://www.visugpx.com">
  <metadata>
    <name>25-05-2017 Ciney - Scy et Retour</name>
    <desc><![CDATA[Itinéraire de détente en vélo électrique (VTC). ]]></desc>
  </metadata>
  <trk>
    <name><![CDATA[Tracé 25 mai 2017 15:34:08]]></name>
    <trkseg>
      <trkpt lat="50.29419" lon="5.09555">
        <ele>268.87934760036</ele>
        <time>2017-05-25T13:34:08Z</time>
      </trkpt>
      <trkpt lat="50.29425" lon="5.09564">
        <ele>269.92840930303</ele>
        <time>2017-05-25T13:34:13Z</time>
      </trkpt>
      <trkpt lat="50.29416" lon="5.0956">
        <ele>270.88224446628</ele>
        <time>2017-05-25T13:34:43Z</time>
      </trkpt>
      <trkpt lat="50.29419" lon="5.09573">
        <ele>274.40944151571</ele>
        <time>2017-05-25T13:34:56Z</time>
      </trkpt>
      <trkpt lat="50.29427" lon="5.09591">
        <ele>273.1316039264</ele>
        <time>2017-05-25T13:35:00Z</time>
      </trkpt>
      <trkpt lat="50.29434" lon="5.09614">
        <ele>270.19824997386</ele>
        <time>2017-05-25T13:35:05Z</time>
      </trkpt>
      <trkpt lat="50.29446" lon="5.09641">
        <ele>266.99820497464</ele>
        <time>2017-05-25T13:35:10Z</time>
      </trkpt>
      <trkpt lat="50.29453" lon="5.09654">
        <ele>266.86342768477</ele>
        <time>2017-05-25T13:35:14Z</time>
      </trkpt>
      <trkpt lat="50.29466" lon="5.09672">
        <ele>265.0657510472</ele>
        <time>2017-05-25T13:35:18Z</time>
      </trkpt>
      <trkpt lat="50.29478" lon="5.0969">
        <ele>261.77149832295</ele>
        <time>2017-05-25T13:35:22Z</time>
      </trkpt>
      <trkpt lat="50.29492" lon="5.09713">
        <ele>259.7585566889</ele>
        <time>2017-05-25T13:35:27Z</time>
      </trkpt>
      <trkpt lat="50.29505" lon="5.09736">
        <ele>258.74868943714</ele>
        <time>2017-05-25T13:35:32Z</time>
      </trkpt>
      <trkpt lat="50.29518" lon="5.09755">
        <ele>258.96669323792</ele>
        <time>2017-05-25T13:35:36Z</time>
      </trkpt>
      <trkpt lat="50.29533" lon="5.0978">
        <ele>261.70227912293</ele>
        <time>2017-05-25T13:35:41Z</time>
      </trkpt>
      <trkpt lat="50.29548" lon="5.09805">
        <ele>263.51895680998</ele>
        <time>2017-05-25T13:35:46Z</time>
      </trkpt>
      <trkpt lat="50.29559" lon="5.09827">
        <ele>264.03146597496</ele>
        <time>2017-05-25T13:35:50Z</time>
      </trkpt>
      <trkpt lat="50.29572" lon="5.09846">
        <ele>264.83506454844</ele>
        <time>2017-05-25T13:35:54Z</time>
      </trkpt>
      <trkpt lat="50.29583" lon="5.09862">
        <ele>265.86529579501</ele>
        <time>2017-05-25T13:35:58Z</time>
      </trkpt>
      <trkpt lat="50.29595" lon="5.0988">
        <ele>266.05957684516</ele>
        <time>2017-05-25T13:36:03Z</time>
      </trkpt>
      <trkpt lat="50.29607" lon="5.09896">
        <ele>266.16958321817</ele>
        <time>2017-05-25T13:36:08Z</time>
      </trkpt>
      <trkpt lat="50.29622" lon="5.09903">
        <ele>265.84241311593</ele>
        <time>2017-05-25T13:36:12Z</time>
      </trkpt>
      <trkpt lat="50.29633" lon="5.09909">
        <ele>263.55642053051</ele>
        <time>2017-05-25T13:36:16Z</time>
      </trkpt>
      <trkpt lat="50.29649" lon="5.09923">
        <ele>259.75515675948</ele>
        <time>2017-05-25T13:36:20Z</time>
      </trkpt>
      <trkpt lat="50.29665" lon="5.09935">
        <ele>258.05368320419</ele>
        <time>2017-05-25T13:36:24Z</time>
      </trkpt>
      <trkpt lat="50.29666" lon="5.09947">
        <ele>258.13975734319</ele>
        <time>2017-05-25T13:36:28Z</time>
      </trkpt>
      <trkpt lat="50.29661" lon="5.09964">
        <ele>258.85265504159</ele>
        <time>2017-05-25T13:36:33Z</time>
      </trkpt>
      <trkpt lat="50.29654" lon="5.09984">
        <ele>265.35698774508</ele>
        <time>2017-05-25T13:36:37Z</time>
      </trkpt>
      <trkpt lat="50.29659" lon="5.10016">
        <ele>265.7077790953</ele>
        <time>2017-05-25T13:36:42Z</time>
      </trkpt>
      <trkpt lat="50.2967" lon="5.10034">
        <ele>265.89214579103</ele>
        <time>2017-05-25T13:36:46Z</time>
      </trkpt>
      <trkpt lat="50.29686" lon="5.10059">
        <ele>266.77906645214</ele>
        <time>2017-05-25T13:36:51Z</time>
      </trkpt>
      <trkpt lat="50.29705" lon="5.10079">
        <ele>267.44636071195</ele>
        <time>2017-05-25T13:36:56Z</time>
      </trkpt>
      <trkpt lat="50.29717" lon="5.10092">
        <ele>268.09945095521</ele>
        <time>2017-05-25T13:37:00Z</time>
      </trkpt>
      <trkpt lat="50.29732" lon="5.10115">
        <ele>268.38672252426</ele>
        <time>2017-05-25T13:37:05Z</time>
      </trkpt>
      <trkpt lat="50.29731" lon="5.10124">
        <ele>267.732366312</ele>
        <time>2017-05-25T13:37:15Z</time>
      </trkpt>
      <trkpt lat="50.29716" lon="5.10141">
        <ele>266.73732907094</ele>
        <time>2017-05-25T13:37:20Z</time>
      </trkpt>
      <trkpt lat="50.29705" lon="5.10158">
        <ele>267.24628357987</ele>
        <time>2017-05-25T13:37:24Z</time>
      </trkpt>
      <trkpt lat="50.29688" lon="5.1018">
        <ele>268.94691050996</ele>
        <time>2017-05-25T13:37:29Z</time>
      </trkpt>
      <trkpt lat="50.29683" lon="5.10201">
        <ele>271.47375788977</ele>
        <time>2017-05-25T13:37:33Z</time>
      </trkpt>
      <trkpt lat="50.29706" lon="5.10237">
        <ele>271.25521482219</ele>
        <time>2017-05-25T13:37:38Z</time>
      </trkpt>
      <trkpt lat="50.29713" lon="5.10247">
        <ele>270.71915914326</ele>
        <time>2017-05-25T13:37:42Z</time>
      </trkpt>
      <trkpt lat="50.29718" lon="5.10261">
        <ele>269.997393445</ele>
        <time>2017-05-25T13:37:46Z</time>
      </trkpt>
      <trkpt lat="50.29713" lon="5.10277">
        <ele>268.20938089589</ele>
        <time>2017-05-25T13:37:50Z</time>
      </trkpt>
      <trkpt lat="50.29697" lon="5.10292">
        <ele>267.31835870175</ele>
        <time>2017-05-25T13:37:55Z</time>
      </trkpt>
      <trkpt lat="50.29684" lon="5.10305">
        <ele>269.23336255531</ele>
        <time>2017-05-25T13:37:59Z</time>
      </trkpt>
      <trkpt lat="50.29671" lon="5.10319">
        <ele>270.37839565339</ele>
        <time>2017-05-25T13:38:04Z</time>
      </trkpt>
      <trkpt lat="50.29659" lon="5.10333">
        <ele>274.06516025443</ele>
        <time>2017-05-25T13:38:08Z</time>
      </trkpt>
      <trkpt lat="50.29648" lon="5.10346">
        <ele>274.69181809944</ele>
        <time>2017-05-25T13:38:12Z</time>
      </trkpt>
      <trkpt lat="50.29632" lon="5.10363">
        <ele>277.2616726486</ele>
        <time>2017-05-25T13:38:17Z</time>
      </trkpt>
      <trkpt lat="50.29612" lon="5.10384">
        <ele>276.27007503196</ele>
        <time>2017-05-25T13:38:22Z</time>
      </trkpt>
      <trkpt lat="50.29597" lon="5.104">
        <ele>273.42651814989</ele>
        <time>2017-05-25T13:38:26Z</time>
      </trkpt>
      <trkpt lat="50.29578" lon="5.10421">
        <ele>271.26337510833</ele>
        <time>2017-05-25T13:38:31Z</time>
      </trkpt>
      <trkpt lat="50.29565" lon="5.1044">
        <ele>272.66988329215</ele>
        <time>2017-05-25T13:38:35Z</time>
      </trkpt>
      <trkpt lat="50.29552" lon="5.1046">
        <ele>273.43212189423</ele>
        <time>2017-05-25T13:38:40Z</time>
      </trkpt>
      <trkpt lat="50.29538" lon="5.10477">
        <ele>273.28446390596</ele>
        <time>2017-05-25T13:38:45Z</time>
      </trkpt>
      <trkpt lat="50.29526" lon="5.10496">
        <ele>272.15780747745</ele>
        <time>2017-05-25T13:38:49Z</time>
      </trkpt>
      <trkpt lat="50.29513" lon="5.10511">
        <ele>272.04303680059</ele>
        <time>2017-05-25T13:38:53Z</time>
      </trkpt>
      <trkpt lat="50.29498" lon="5.10538">
        <ele>273.20762912487</ele>
        <time>2017-05-25T13:38:58Z</time>
      </trkpt>
      <trkpt lat="50.29487" lon="5.1056">
        <ele>275.49836197629</ele>
        <time>2017-05-25T13:39:03Z</time>
      </trkpt>
      <trkpt lat="50.29481" lon="5.10576">
        <ele>276.78888078758</ele>
        <time>2017-05-25T13:39:07Z</time>
      </trkpt>
      <trkpt lat="50.29472" lon="5.10594">
        <ele>277.91980203008</ele>
        <time>2017-05-25T13:39:11Z</time>
      </trkpt>
      <trkpt lat="50.29463" lon="5.10613">
        <ele>278.72828463241</ele>
        <time>2017-05-25T13:39:15Z</time>
      </trkpt>
      <trkpt lat="50.29451" lon="5.10639">
        <ele>280.50331021482</ele>
        <time>2017-05-25T13:39:20Z</time>
      </trkpt>
      <trkpt lat="50.29442" lon="5.10658">
        <ele>280.64371912805</ele>
        <time>2017-05-25T13:39:24Z</time>
      </trkpt>
      <trkpt lat="50.29431" lon="5.10684">
        <ele>282.96159868784</ele>
        <time>2017-05-25T13:39:29Z</time>
      </trkpt>
      <trkpt lat="50.29416" lon="5.107">
        <ele>282.21530580398</ele>
        <time>2017-05-25T13:39:33Z</time>
      </trkpt>
      <trkpt lat="50.29394" lon="5.10703">
        <ele>280.8212313869</ele>
        <time>2017-05-25T13:39:38Z</time>
      </trkpt>
      <trkpt lat="50.2938" lon="5.10695">
        <ele>276.23702834101</ele>
        <time>2017-05-25T13:39:42Z</time>
      </trkpt>
      <trkpt lat="50.29364" lon="5.10683">
        <ele>271.26873767594</ele>
        <time>2017-05-25T13:39:46Z</time>
      </trkpt>
      <trkpt lat="50.29348" lon="5.10687">
        <ele>269.78474930214</ele>
        <time>2017-05-25T13:39:50Z</time>
      </trkpt>
      <trkpt lat="50.2933" lon="5.10705">
        <ele>272.23684543334</ele>
        <time>2017-05-25T13:39:55Z</time>
      </trkpt>
      <trkpt lat="50.29316" lon="5.1072">
        <ele>271.4840054421</ele>
        <time>2017-05-25T13:39:59Z</time>
      </trkpt>
      <trkpt lat="50.29294" lon="5.10738">
        <ele>270.71338519161</ele>
        <time>2017-05-25T13:40:04Z</time>
      </trkpt>
      <trkpt lat="50.2928" lon="5.10751">
        <ele>274.02913876566</ele>
        <time>2017-05-25T13:40:08Z</time>
      </trkpt>
      <trkpt lat="50.29264" lon="5.10757">
        <ele>277.20909686356</ele>
        <time>2017-05-25T13:40:13Z</time>
      </trkpt>
      <trkpt lat="50.29249" lon="5.10763">
        <ele>277.7280097402</ele>
        <time>2017-05-25T13:40:17Z</time>
      </trkpt>
      <trkpt lat="50.29225" lon="5.10773">
        <ele>281.23546353144</ele>
        <time>2017-05-25T13:40:22Z</time>
      </trkpt>
      <trkpt lat="50.29206" lon="5.10782">
        <ele>282.47597844018</ele>
        <time>2017-05-25T13:40:26Z</time>
      </trkpt>
      <trkpt lat="50.29184" lon="5.10793">
        <ele>276.09671630825</ele>
        <time>2017-05-25T13:40:31Z</time>
      </trkpt>
      <trkpt lat="50.29164" lon="5.10801">
        <ele>273.2280430059</ele>
        <time>2017-05-25T13:40:36Z</time>
      </trkpt>
      <trkpt lat="50.2915" lon="5.1081">
        <ele>272.05342723771</ele>
        <time>2017-05-25T13:40:40Z</time>
      </trkpt>
      <trkpt lat="50.29131" lon="5.10818">
        <ele>271.76567759743</ele>
        <time>2017-05-25T13:40:45Z</time>
      </trkpt>
      <trkpt lat="50.29116" lon="5.10825">
        <ele>271.98698195896</ele>
        <time>2017-05-25T13:40:49Z</time>
      </trkpt>
      <trkpt lat="50.29096" lon="5.10832">
        <ele>273.37430760735</ele>
        <time>2017-05-25T13:40:54Z</time>
      </trkpt>
      <trkpt lat="50.2908" lon="5.10841">
        <ele>276.41454311872</ele>
        <time>2017-05-25T13:40:58Z</time>
      </trkpt>
      <trkpt lat="50.29065" lon="5.10849">
        <ele>277.01062031612</ele>
        <time>2017-05-25T13:41:02Z</time>
      </trkpt>
      <trkpt lat="50.29045" lon="5.10861">
        <ele>276.48974262758</ele>
        <time>2017-05-25T13:41:07Z</time>
      </trkpt>
      <trkpt lat="50.29029" lon="5.10871">
        <ele>276.49103214822</ele>
        <time>2017-05-25T13:41:11Z</time>
      </trkpt>
      <trkpt lat="50.29009" lon="5.10882">
        <ele>274.99227404334</ele>
        <time>2017-05-25T13:41:16Z</time>
      </trkpt>
      <trkpt lat="50.28995" lon="5.10891">
        <ele>274.78405572286</ele>
        <time>2017-05-25T13:41:20Z</time>
      </trkpt>
      <trkpt lat="50.28974" lon="5.10902">
        <ele>276.07949315343</ele>
        <time>2017-05-25T13:41:25Z</time>
      </trkpt>
      <trkpt lat="50.28955" lon="5.10908">
        <ele>280.23186964329</ele>
        <time>2017-05-25T13:41:30Z</time>
      </trkpt>
      <trkpt lat="50.28933" lon="5.1092">
        <ele>281.29840196008</ele>
        <time>2017-05-25T13:41:35Z</time>
      </trkpt>
      <trkpt lat="50.28919" lon="5.10929">
        <ele>281.47587675188</ele>
        <time>2017-05-25T13:41:39Z</time>
      </trkpt>
      <trkpt lat="50.28904" lon="5.10942">
        <ele>285.69186894015</ele>
        <time>2017-05-25T13:41:43Z</time>
      </trkpt>
      <trkpt lat="50.28888" lon="5.10961">
        <ele>286.34904161949</ele>
        <time>2017-05-25T13:41:48Z</time>
      </trkpt>
      <trkpt lat="50.28873" lon="5.10979">
        <ele>286.34458985825</ele>
        <time>2017-05-25T13:41:53Z</time>
      </trkpt>
      <trkpt lat="50.2886" lon="5.10994">
        <ele>287.02086070376</ele>
        <time>2017-05-25T13:41:57Z</time>
      </trkpt>
      <trkpt lat="50.28847" lon="5.11013">
        <ele>286.72597750568</ele>
        <time>2017-05-25T13:42:02Z</time>
      </trkpt>
      <trkpt lat="50.28838" lon="5.11024">
        <ele>287.3413988367</ele>
        <time>2017-05-25T13:42:06Z</time>
      </trkpt>
      <trkpt lat="50.2883" lon="5.11035">
        <ele>287.61939533723</ele>
        <time>2017-05-25T13:42:10Z</time>
      </trkpt>
      <trkpt lat="50.28823" lon="5.11043">
        <ele>288.07077231756</ele>
        <time>2017-05-25T13:42:14Z</time>
      </trkpt>
      <trkpt lat="50.28812" lon="5.11054">
        <ele>290.23726919558</ele>
        <time>2017-05-25T13:42:18Z</time>
      </trkpt>
      <trkpt lat="50.28795" lon="5.11068">
        <ele>294.67317989752</ele>
        <time>2017-05-25T13:42:22Z</time>
      </trkpt>
      <trkpt lat="50.28774" lon="5.11086">
        <ele>295.60478118353</ele>
        <time>2017-05-25T13:42:26Z</time>
      </trkpt>
      <trkpt lat="50.28745" lon="5.11107">
        <ele>292.0072352718</ele>
        <time>2017-05-25T13:42:31Z</time>
      </trkpt>
      <trkpt lat="50.28717" lon="5.11127">
        <ele>287.06409332924</ele>
        <time>2017-05-25T13:42:35Z</time>
      </trkpt>
      <trkpt lat="50.28675" lon="5.11144">
        <ele>280.9216044843</ele>
        <time>2017-05-25T13:42:40Z</time>
      </trkpt>
      <trkpt lat="50.2864" lon="5.11152">
        <ele>279.12565669763</ele>
        <time>2017-05-25T13:42:44Z</time>
      </trkpt>
      <trkpt lat="50.28609" lon="5.11154">
        <ele>279.06231215783</ele>
        <time>2017-05-25T13:42:48Z</time>
      </trkpt>
      <trkpt lat="50.2858" lon="5.11154">
        <ele>280.03818187517</ele>
        <time>2017-05-25T13:42:53Z</time>
      </trkpt>
      <trkpt lat="50.28562" lon="5.11165">
        <ele>279.5242688413</ele>
        <time>2017-05-25T13:42:57Z</time>
      </trkpt>
      <trkpt lat="50.28539" lon="5.1118">
        <ele>277.85826238482</ele>
        <time>2017-05-25T13:43:02Z</time>
      </trkpt>
      <trkpt lat="50.28521" lon="5.11194">
        <ele>278.97021128095</ele>
        <time>2017-05-25T13:43:06Z</time>
      </trkpt>
      <trkpt lat="50.28502" lon="5.11203">
        <ele>280.46769550144</ele>
        <time>2017-05-25T13:43:10Z</time>
      </trkpt>
      <trkpt lat="50.28487" lon="5.11208">
        <ele>282.04031612516</ele>
        <time>2017-05-25T13:43:14Z</time>
      </trkpt>
      <trkpt lat="50.28473" lon="5.11214">
        <ele>282.93502251316</ele>
        <time>2017-05-25T13:43:18Z</time>
      </trkpt>
      <trkpt lat="50.28452" lon="5.11225">
        <ele>281.66933291962</ele>
        <time>2017-05-25T13:43:22Z</time>
      </trkpt>
      <trkpt lat="50.28422" lon="5.11241">
        <ele>278.11263913328</ele>
        <time>2017-05-25T13:43:27Z</time>
      </trkpt>
      <trkpt lat="50.28393" lon="5.11241">
        <ele>277.06875079696</ele>
        <time>2017-05-25T13:43:31Z</time>
      </trkpt>
      <trkpt lat="50.28358" lon="5.11228">
        <ele>276.78030461715</ele>
        <time>2017-05-25T13:43:36Z</time>
      </trkpt>
      <trkpt lat="50.28316" lon="5.11221">
        <ele>277.10551654689</ele>
        <time>2017-05-25T13:43:41Z</time>
      </trkpt>
      <trkpt lat="50.28268" lon="5.11228">
        <ele>273.31672970089</ele>
        <time>2017-05-25T13:43:45Z</time>
      </trkpt>
      <trkpt lat="50.2822" lon="5.11219">
        <ele>266.51843644</ele>
        <time>2017-05-25T13:43:50Z</time>
      </trkpt>
      <trkpt lat="50.28185" lon="5.11203">
        <ele>260.94257907733</ele>
        <time>2017-05-25T13:43:54Z</time>
      </trkpt>
      <trkpt lat="50.28154" lon="5.11191">
        <ele>257.53849427795</ele>
        <time>2017-05-25T13:43:58Z</time>
      </trkpt>
      <trkpt lat="50.28125" lon="5.11183">
        <ele>256.23059963054</ele>
        <time>2017-05-25T13:44:02Z</time>
      </trkpt>
      <trkpt lat="50.28095" lon="5.11177">
        <ele>256.04540468185</ele>
        <time>2017-05-25T13:44:07Z</time>
      </trkpt>
      <trkpt lat="50.28073" lon="5.11175">
        <ele>254.10594900092</ele>
        <time>2017-05-25T13:44:11Z</time>
      </trkpt>
      <trkpt lat="50.28048" lon="5.11169">
        <ele>254.00698872626</ele>
        <time>2017-05-25T13:44:16Z</time>
      </trkpt>
      <trkpt lat="50.28029" lon="5.11164">
        <ele>256.09292805745</ele>
        <time>2017-05-25T13:44:20Z</time>
      </trkpt>
      <trkpt lat="50.28016" lon="5.1116">
        <ele>259.22816351274</ele>
        <time>2017-05-25T13:44:24Z</time>
      </trkpt>
      <trkpt lat="50.27997" lon="5.11155">
        <ele>261.42793839595</ele>
        <time>2017-05-25T13:44:29Z</time>
      </trkpt>
      <trkpt lat="50.27976" lon="5.1115">
        <ele>260.90895174209</ele>
        <time>2017-05-25T13:44:34Z</time>
      </trkpt>
      <trkpt lat="50.27957" lon="5.11146">
        <ele>260.87804502759</ele>
        <time>2017-05-25T13:44:39Z</time>
      </trkpt>
      <trkpt lat="50.27942" lon="5.11143">
        <ele>260.92442003613</ele>
        <time>2017-05-25T13:44:43Z</time>
      </trkpt>
      <trkpt lat="50.2793" lon="5.11142">
        <ele>260.93956848297</ele>
        <time>2017-05-25T13:44:47Z</time>
      </trkpt>
      <trkpt lat="50.27919" lon="5.1114">
        <ele>261.17293262946</ele>
        <time>2017-05-25T13:44:52Z</time>
      </trkpt>
      <trkpt lat="50.27909" lon="5.11141">
        <ele>261.69743836439</ele>
        <time>2017-05-25T13:44:57Z</time>
      </trkpt>
      <trkpt lat="50.279" lon="5.11141">
        <ele>262.60485558666</ele>
        <time>2017-05-25T13:45:01Z</time>
      </trkpt>
      <trkpt lat="50.27882" lon="5.11142">
        <ele>269.98388090748</ele>
        <time>2017-05-25T13:45:06Z</time>
      </trkpt>
      <trkpt lat="50.27861" lon="5.11142">
        <ele>270.71709343842</ele>
        <time>2017-05-25T13:45:11Z</time>
      </trkpt>
      <trkpt lat="50.27844" lon="5.11141">
        <ele>271.14658710614</ele>
        <time>2017-05-25T13:45:15Z</time>
      </trkpt>
      <trkpt lat="50.27823" lon="5.1114">
        <ele>270.28808794376</ele>
        <time>2017-05-25T13:45:20Z</time>
      </trkpt>
      <trkpt lat="50.27809" lon="5.1114">
        <ele>270.23934935997</ele>
        <time>2017-05-25T13:45:24Z</time>
      </trkpt>
      <trkpt lat="50.27789" lon="5.11138">
        <ele>271.80853246036</ele>
        <time>2017-05-25T13:45:29Z</time>
      </trkpt>
      <trkpt lat="50.27771" lon="5.11137">
        <ele>273.32518590947</ele>
        <time>2017-05-25T13:45:34Z</time>
      </trkpt>
      <trkpt lat="50.27755" lon="5.11136">
        <ele>274.98294529896</ele>
        <time>2017-05-25T13:45:38Z</time>
      </trkpt>
      <trkpt lat="50.27737" lon="5.11136">
        <ele>276.95616278868</ele>
        <time>2017-05-25T13:45:43Z</time>
      </trkpt>
      <trkpt lat="50.27723" lon="5.11135">
        <ele>277.82283814823</ele>
        <time>2017-05-25T13:45:47Z</time>
      </trkpt>
      <trkpt lat="50.27707" lon="5.11134">
        <ele>279.87889536295</ele>
        <time>2017-05-25T13:45:51Z</time>
      </trkpt>
      <trkpt lat="50.27692" lon="5.11134">
        <ele>280.25487106438</ele>
        <time>2017-05-25T13:45:55Z</time>
      </trkpt>
      <trkpt lat="50.27672" lon="5.11135">
        <ele>280.34725018685</ele>
        <time>2017-05-25T13:46:00Z</time>
      </trkpt>
      <trkpt lat="50.27654" lon="5.11136">
        <ele>280.231250235</ele>
        <time>2017-05-25T13:46:05Z</time>
      </trkpt>
      <trkpt lat="50.27641" lon="5.11136">
        <ele>281.19749308981</ele>
        <time>2017-05-25T13:46:09Z</time>
      </trkpt>
      <trkpt lat="50.27626" lon="5.11135">
        <ele>282.52052301381</ele>
        <time>2017-05-25T13:46:13Z</time>
      </trkpt>
      <trkpt lat="50.27606" lon="5.11134">
        <ele>285.04427424189</ele>
        <time>2017-05-25T13:46:18Z</time>
      </trkpt>
      <trkpt lat="50.27592" lon="5.11133">
        <ele>288.2009592386</ele>
        <time>2017-05-25T13:46:22Z</time>
      </trkpt>
      <trkpt lat="50.27572" lon="5.11131">
        <ele>291.07955621377</ele>
        <time>2017-05-25T13:46:27Z</time>
      </trkpt>
      <trkpt lat="50.27557" lon="5.11132">
        <ele>291.116844536</ele>
        <time>2017-05-25T13:46:31Z</time>
      </trkpt>
      <trkpt lat="50.27537" lon="5.11134">
        <ele>291.08753310345</ele>
        <time>2017-05-25T13:46:36Z</time>
      </trkpt>
      <trkpt lat="50.2752" lon="5.11134">
        <ele>292.69783779048</ele>
        <time>2017-05-25T13:46:40Z</time>
      </trkpt>
      <trkpt lat="50.27498" lon="5.11134">
        <ele>294.87718920897</ele>
        <time>2017-05-25T13:46:45Z</time>
      </trkpt>
      <trkpt lat="50.2748" lon="5.11131">
        <ele>297.5718742621</ele>
        <time>2017-05-25T13:46:50Z</time>
      </trkpt>
      <trkpt lat="50.27466" lon="5.11131">
        <ele>299.24198746457</ele>
        <time>2017-05-25T13:46:54Z</time>
      </trkpt>
      <trkpt lat="50.27453" lon="5.11132">
        <ele>299.89335362841</ele>
        <time>2017-05-25T13:46:58Z</time>
      </trkpt>
      <trkpt lat="50.2744" lon="5.11133">
        <ele>300.66507607197</ele>
        <time>2017-05-25T13:47:02Z</time>
      </trkpt>
      <trkpt lat="50.27425" lon="5.11131">
        <ele>307.445098774</ele>
        <time>2017-05-25T13:47:07Z</time>
      </trkpt>
      <trkpt lat="50.2741" lon="5.1113">
        <ele>308.2855826339</ele>
        <time>2017-05-25T13:47:11Z</time>
      </trkpt>
      <trkpt lat="50.27392" lon="5.11133">
        <ele>310.18965766694</ele>
        <time>2017-05-25T13:47:16Z</time>
      </trkpt>
      <trkpt lat="50.27386" lon="5.11133">
        <ele>309.74650346213</ele>
        <time>2017-05-25T13:47:21Z</time>
      </trkpt>
      <trkpt lat="50.27378" lon="5.11134">
        <ele>305.73760061279</ele>
        <time>2017-05-25T13:48:36Z</time>
      </trkpt>
      <trkpt lat="50.27369" lon="5.11136">
        <ele>305.14113626037</ele>
        <time>2017-05-25T13:48:41Z</time>
      </trkpt>
      <trkpt lat="50.27371" lon="5.11147">
        <ele>303.28631710464</ele>
        <time>2017-05-25T13:49:01Z</time>
      </trkpt>
      <trkpt lat="50.27376" lon="5.11164">
        <ele>303.37626686557</ele>
        <time>2017-05-25T13:49:05Z</time>
      </trkpt>
      <trkpt lat="50.27386" lon="5.11183">
        <ele>304.46523893005</ele>
        <time>2017-05-25T13:49:09Z</time>
      </trkpt>
      <trkpt lat="50.27396" lon="5.11203">
        <ele>304.84593274636</ele>
        <time>2017-05-25T13:49:13Z</time>
      </trkpt>
      <trkpt lat="50.27408" lon="5.11228">
        <ele>304.39732197034</ele>
        <time>2017-05-25T13:49:18Z</time>
      </trkpt>
      <trkpt lat="50.27417" lon="5.11247">
        <ele>304.17140258275</ele>
        <time>2017-05-25T13:49:22Z</time>
      </trkpt>
      <trkpt lat="50.27429" lon="5.1127">
        <ele>304.9836044893</ele>
        <time>2017-05-25T13:49:27Z</time>
      </trkpt>
      <trkpt lat="50.27439" lon="5.1129">
        <ele>306.50271044933</ele>
        <time>2017-05-25T13:49:31Z</time>
      </trkpt>
      <trkpt lat="50.2745" lon="5.11311">
        <ele>306.18195783895</ele>
        <time>2017-05-25T13:49:35Z</time>
      </trkpt>
      <trkpt lat="50.27464" lon="5.11336">
        <ele>307.33236550047</ele>
        <time>2017-05-25T13:49:40Z</time>
      </trkpt>
      <trkpt lat="50.27476" lon="5.11356">
        <ele>309.89298226744</ele>
        <time>2017-05-25T13:49:44Z</time>
      </trkpt>
      <trkpt lat="50.27489" lon="5.11378">
        <ele>312.38751665604</ele>
        <time>2017-05-25T13:49:49Z</time>
      </trkpt>
      <trkpt lat="50.27503" lon="5.11403">
        <ele>314.29288636623</ele>
        <time>2017-05-25T13:49:54Z</time>
      </trkpt>
      <trkpt lat="50.27515" lon="5.1142">
        <ele>314.60484998733</ele>
        <time>2017-05-25T13:49:58Z</time>
      </trkpt>
      <trkpt lat="50.27526" lon="5.11443">
        <ele>314.99902403041</ele>
        <time>2017-05-25T13:50:02Z</time>
      </trkpt>
      <trkpt lat="50.27536" lon="5.11464">
        <ele>314.12971763357</ele>
        <time>2017-05-25T13:50:06Z</time>
      </trkpt>
      <trkpt lat="50.27549" lon="5.11488">
        <ele>316.09385395298</ele>
        <time>2017-05-25T13:50:11Z</time>
      </trkpt>
      <trkpt lat="50.27561" lon="5.11509">
        <ele>316.65684381212</ele>
        <time>2017-05-25T13:50:16Z</time>
      </trkpt>
      <trkpt lat="50.27573" lon="5.11533">
        <ele>318.96789423011</ele>
        <time>2017-05-25T13:50:21Z</time>
      </trkpt>
      <trkpt lat="50.27582" lon="5.11556">
        <ele>318.97314355683</ele>
        <time>2017-05-25T13:50:25Z</time>
      </trkpt>
      <trkpt lat="50.27593" lon="5.11579">
        <ele>318.77284039646</ele>
        <time>2017-05-25T13:50:30Z</time>
      </trkpt>
      <trkpt lat="50.27605" lon="5.11595">
        <ele>319.40872834847</ele>
        <time>2017-05-25T13:50:34Z</time>
      </trkpt>
      <trkpt lat="50.27616" lon="5.1161">
        <ele>319.58281345314</ele>
        <time>2017-05-25T13:50:38Z</time>
      </trkpt>
      <trkpt lat="50.27624" lon="5.11625">
        <ele>319.56423354761</ele>
        <time>2017-05-25T13:50:42Z</time>
      </trkpt>
      <trkpt lat="50.27636" lon="5.11655">
        <ele>319.2418668471</ele>
        <time>2017-05-25T13:50:47Z</time>
      </trkpt>
      <trkpt lat="50.27645" lon="5.1168">
        <ele>318.15669915992</ele>
        <time>2017-05-25T13:50:52Z</time>
      </trkpt>
      <trkpt lat="50.27653" lon="5.11697">
        <ele>317.49908702326</ele>
        <time>2017-05-25T13:50:56Z</time>
      </trkpt>
      <trkpt lat="50.27663" lon="5.11712">
        <ele>315.95422115687</ele>
        <time>2017-05-25T13:51:00Z</time>
      </trkpt>
      <trkpt lat="50.27673" lon="5.11728">
        <ele>315.89723141914</ele>
        <time>2017-05-25T13:51:04Z</time>
      </trkpt>
      <trkpt lat="50.27683" lon="5.11746">
        <ele>315.97673385429</ele>
        <time>2017-05-25T13:51:09Z</time>
      </trkpt>
      <trkpt lat="50.27695" lon="5.11763">
        <ele>314.69604150855</ele>
        <time>2017-05-25T13:51:13Z</time>
      </trkpt>
      <trkpt lat="50.27711" lon="5.11786">
        <ele>313.40269552476</ele>
        <time>2017-05-25T13:51:18Z</time>
      </trkpt>
      <trkpt lat="50.27722" lon="5.11807">
        <ele>312.60282129837</ele>
        <time>2017-05-25T13:51:22Z</time>
      </trkpt>
      <trkpt lat="50.27736" lon="5.11832">
        <ele>310.92223859402</ele>
        <time>2017-05-25T13:51:27Z</time>
      </trkpt>
      <trkpt lat="50.27749" lon="5.11854">
        <ele>309.03406266077</ele>
        <time>2017-05-25T13:51:31Z</time>
      </trkpt>
      <trkpt lat="50.2776" lon="5.11876">
        <ele>308.73008421573</ele>
        <time>2017-05-25T13:51:35Z</time>
      </trkpt>
      <trkpt lat="50.27772" lon="5.11897">
        <ele>310.92367569036</ele>
        <time>2017-05-25T13:51:39Z</time>
      </trkpt>
      <trkpt lat="50.2779" lon="5.11922">
        <ele>311.03454804282</ele>
        <time>2017-05-25T13:51:44Z</time>
      </trkpt>
      <trkpt lat="50.27804" lon="5.11947">
        <ele>311.55768663922</ele>
        <time>2017-05-25T13:51:49Z</time>
      </trkpt>
      <trkpt lat="50.27816" lon="5.11973">
        <ele>312.03252852099</ele>
        <time>2017-05-25T13:51:53Z</time>
      </trkpt>
      <trkpt lat="50.27828" lon="5.11994">
        <ele>309.97377126937</ele>
        <time>2017-05-25T13:51:57Z</time>
      </trkpt>
      <trkpt lat="50.27841" lon="5.12013">
        <ele>309.24349350047</ele>
        <time>2017-05-25T13:52:01Z</time>
      </trkpt>
      <trkpt lat="50.27854" lon="5.12032">
        <ele>305.54004557816</ele>
        <time>2017-05-25T13:52:05Z</time>
      </trkpt>
      <trkpt lat="50.27869" lon="5.12052">
        <ele>304.37271322744</ele>
        <time>2017-05-25T13:52:10Z</time>
      </trkpt>
      <trkpt lat="50.2788" lon="5.12068">
        <ele>303.63226245657</ele>
        <time>2017-05-25T13:52:14Z</time>
      </trkpt>
      <trkpt lat="50.27892" lon="5.12085">
        <ele>303.0027542882</ele>
        <time>2017-05-25T13:52:18Z</time>
      </trkpt>
      <trkpt lat="50.27904" lon="5.121">
        <ele>302.37731339277</ele>
        <time>2017-05-25T13:52:22Z</time>
      </trkpt>
      <trkpt lat="50.27914" lon="5.12115">
        <ele>302.51899205622</ele>
        <time>2017-05-25T13:52:26Z</time>
      </trkpt>
      <trkpt lat="50.27928" lon="5.12134">
        <ele>305.53577311453</ele>
        <time>2017-05-25T13:52:31Z</time>
      </trkpt>
      <trkpt lat="50.27944" lon="5.12156">
        <ele>308.35349586204</ele>
        <time>2017-05-25T13:52:36Z</time>
      </trkpt>
      <trkpt lat="50.27958" lon="5.12175">
        <ele>309.2077957387</ele>
        <time>2017-05-25T13:52:40Z</time>
      </trkpt>
      <trkpt lat="50.27973" lon="5.12199">
        <ele>309.84238073058</ele>
        <time>2017-05-25T13:52:45Z</time>
      </trkpt>
      <trkpt lat="50.27984" lon="5.1222">
        <ele>309.62586278788</ele>
        <time>2017-05-25T13:52:49Z</time>
      </trkpt>
      <trkpt lat="50.27999" lon="5.12248">
        <ele>310.22601804378</ele>
        <time>2017-05-25T13:52:54Z</time>
      </trkpt>
      <trkpt lat="50.28011" lon="5.1227">
        <ele>308.55617978876</ele>
        <time>2017-05-25T13:52:58Z</time>
      </trkpt>
      <trkpt lat="50.28024" lon="5.12299">
        <ele>306.96236153666</ele>
        <time>2017-05-25T13:53:03Z</time>
      </trkpt>
      <trkpt lat="50.28034" lon="5.12324">
        <ele>306.84388328515</ele>
        <time>2017-05-25T13:53:07Z</time>
      </trkpt>
      <trkpt lat="50.28043" lon="5.12349">
        <ele>307.51827896967</ele>
        <time>2017-05-25T13:53:11Z</time>
      </trkpt>
      <trkpt lat="50.28052" lon="5.12373">
        <ele>307.51714194569</ele>
        <time>2017-05-25T13:53:15Z</time>
      </trkpt>
      <trkpt lat="50.28064" lon="5.12404">
        <ele>308.11440485796</ele>
        <time>2017-05-25T13:53:20Z</time>
      </trkpt>
      <trkpt lat="50.28073" lon="5.12429">
        <ele>308.6002545219</ele>
        <time>2017-05-25T13:53:24Z</time>
      </trkpt>
      <trkpt lat="50.28082" lon="5.12452">
        <ele>309.91084567805</ele>
        <time>2017-05-25T13:53:28Z</time>
      </trkpt>
      <trkpt lat="50.28092" lon="5.12481">
        <ele>311.53975190285</ele>
        <time>2017-05-25T13:53:33Z</time>
      </trkpt>
      <trkpt lat="50.28102" lon="5.1251">
        <ele>311.76891153463</ele>
        <time>2017-05-25T13:53:38Z</time>
      </trkpt>
      <trkpt lat="50.2811" lon="5.12532">
        <ele>312.85646587645</ele>
        <time>2017-05-25T13:53:42Z</time>
      </trkpt>
      <trkpt lat="50.28111" lon="5.12555">
        <ele>313.15073772714</ele>
        <time>2017-05-25T13:53:47Z</time>
      </trkpt>
      <trkpt lat="50.28106" lon="5.12565">
        <ele>313.01756656755</ele>
        <time>2017-05-25T13:53:51Z</time>
      </trkpt>
      <trkpt lat="50.28102" lon="5.12577">
        <ele>313.43961592302</ele>
        <time>2017-05-25T13:54:27Z</time>
      </trkpt>
      <trkpt lat="50.28096" lon="5.12586">
        <ele>314.007591138</ele>
        <time>2017-05-25T13:54:43Z</time>
      </trkpt>
      <trkpt lat="50.28092" lon="5.12596">
        <ele>314.29003035984</ele>
        <time>2017-05-25T13:54:48Z</time>
      </trkpt>
      <trkpt lat="50.28086" lon="5.12606">
        <ele>314.7482256682</ele>
        <time>2017-05-25T13:54:55Z</time>
      </trkpt>
      <trkpt lat="50.2808" lon="5.12617">
        <ele>315.0369325595</ele>
        <time>2017-05-25T13:55:00Z</time>
      </trkpt>
      <trkpt lat="50.28064" lon="5.12641">
        <ele>315.94009836826</ele>
        <time>2017-05-25T13:55:04Z</time>
      </trkpt>
      <trkpt lat="50.28045" lon="5.12673">
        <ele>314.39058257723</ele>
        <time>2017-05-25T13:55:08Z</time>
      </trkpt>
      <trkpt lat="50.2803" lon="5.12697">
        <ele>312.2742858247</ele>
        <time>2017-05-25T13:55:12Z</time>
      </trkpt>
      <trkpt lat="50.28013" lon="5.12727">
        <ele>310.02329472636</ele>
        <time>2017-05-25T13:55:17Z</time>
      </trkpt>
      <trkpt lat="50.28" lon="5.12754">
        <ele>306.57160790986</ele>
        <time>2017-05-25T13:55:21Z</time>
      </trkpt>
      <trkpt lat="50.27984" lon="5.12784">
        <ele>305.26292791464</ele>
        <time>2017-05-25T13:55:25Z</time>
      </trkpt>
      <trkpt lat="50.27969" lon="5.12815">
        <ele>303.19104072971</ele>
        <time>2017-05-25T13:55:29Z</time>
      </trkpt>
      <trkpt lat="50.27954" lon="5.12868">
        <ele>303.51937923381</ele>
        <time>2017-05-25T13:55:34Z</time>
      </trkpt>
      <trkpt lat="50.27948" lon="5.12918">
        <ele>301.41543986508</ele>
        <time>2017-05-25T13:55:39Z</time>
      </trkpt>
      <trkpt lat="50.27944" lon="5.12953">
        <ele>297.75446523041</ele>
        <time>2017-05-25T13:55:44Z</time>
      </trkpt>
      <trkpt lat="50.27939" lon="5.12984">
        <ele>298.00412554431</ele>
        <time>2017-05-25T13:55:48Z</time>
      </trkpt>
      <trkpt lat="50.27934" lon="5.13014">
        <ele>299.34039272988</ele>
        <time>2017-05-25T13:55:53Z</time>
      </trkpt>
      <trkpt lat="50.27929" lon="5.13041">
        <ele>299.98699609056</ele>
        <time>2017-05-25T13:55:57Z</time>
      </trkpt>
      <trkpt lat="50.2792" lon="5.13083">
        <ele>297.37271540857</ele>
        <time>2017-05-25T13:56:02Z</time>
      </trkpt>
      <trkpt lat="50.27912" lon="5.13115">
        <ele>295.91509883169</ele>
        <time>2017-05-25T13:56:06Z</time>
      </trkpt>
      <trkpt lat="50.27905" lon="5.13144">
        <ele>296.11368756167</ele>
        <time>2017-05-25T13:56:10Z</time>
      </trkpt>
      <trkpt lat="50.27897" lon="5.13172">
        <ele>297.4237839302</ele>
        <time>2017-05-25T13:56:14Z</time>
      </trkpt>
      <trkpt lat="50.27887" lon="5.13202">
        <ele>295.84941641639</ele>
        <time>2017-05-25T13:56:18Z</time>
      </trkpt>
      <trkpt lat="50.27875" lon="5.13235">
        <ele>293.99079452213</ele>
        <time>2017-05-25T13:56:22Z</time>
      </trkpt>
      <trkpt lat="50.27862" lon="5.1326">
        <ele>292.41408060572</ele>
        <time>2017-05-25T13:56:27Z</time>
      </trkpt>
      <trkpt lat="50.27849" lon="5.13254">
        <ele>289.66710281929</ele>
        <time>2017-05-25T13:56:31Z</time>
      </trkpt>
      <trkpt lat="50.2783" lon="5.13231">
        <ele>285.24233371206</ele>
        <time>2017-05-25T13:56:36Z</time>
      </trkpt>
      <trkpt lat="50.27803" lon="5.13218">
        <ele>280.43777824667</ele>
        <time>2017-05-25T13:56:40Z</time>
      </trkpt>
      <trkpt lat="50.27774" lon="5.13188">
        <ele>276.14342353108</ele>
        <time>2017-05-25T13:56:45Z</time>
      </trkpt>
      <trkpt lat="50.27755" lon="5.1316">
        <ele>273.19777938686</ele>
        <time>2017-05-25T13:56:49Z</time>
      </trkpt>
      <trkpt lat="50.27734" lon="5.13137">
        <ele>271.3451294656</ele>
        <time>2017-05-25T13:56:53Z</time>
      </trkpt>
      <trkpt lat="50.27712" lon="5.13117">
        <ele>270.7884466792</ele>
        <time>2017-05-25T13:56:58Z</time>
      </trkpt>
      <trkpt lat="50.27695" lon="5.13118">
        <ele>269.23056858589</ele>
        <time>2017-05-25T13:57:02Z</time>
      </trkpt>
      <trkpt lat="50.2767" lon="5.13146">
        <ele>267.48648434605</ele>
        <time>2017-05-25T13:57:06Z</time>
      </trkpt>
      <trkpt lat="50.2764" lon="5.13185">
        <ele>267.16311550812</ele>
        <time>2017-05-25T13:57:11Z</time>
      </trkpt>
      <trkpt lat="50.27617" lon="5.13213">
        <ele>267.17099444696</ele>
        <time>2017-05-25T13:57:15Z</time>
      </trkpt>
      <trkpt lat="50.27594" lon="5.13243">
        <ele>266.23077026831</ele>
        <time>2017-05-25T13:57:20Z</time>
      </trkpt>
      <trkpt lat="50.2758" lon="5.13268">
        <ele>266.00467238488</ele>
        <time>2017-05-25T13:57:24Z</time>
      </trkpt>
      <trkpt lat="50.27569" lon="5.13295">
        <ele>266.99415739891</ele>
        <time>2017-05-25T13:57:28Z</time>
      </trkpt>
      <trkpt lat="50.27566" lon="5.1332">
        <ele>269.99455450994</ele>
        <time>2017-05-25T13:57:32Z</time>
      </trkpt>
      <trkpt lat="50.27567" lon="5.13345">
        <ele>274.15264488514</ele>
        <time>2017-05-25T13:57:36Z</time>
      </trkpt>
      <trkpt lat="50.27571" lon="5.13367">
        <ele>275.70969169507</ele>
        <time>2017-05-25T13:57:40Z</time>
      </trkpt>
      <trkpt lat="50.27577" lon="5.13395">
        <ele>277.56046147603</ele>
        <time>2017-05-25T13:57:45Z</time>
      </trkpt>
      <trkpt lat="50.27581" lon="5.13417">
        <ele>277.98312058599</ele>
        <time>2017-05-25T13:57:49Z</time>
      </trkpt>
      <trkpt lat="50.27586" lon="5.13445">
        <ele>279.73866662982</ele>
        <time>2017-05-25T13:57:54Z</time>
      </trkpt>
      <trkpt lat="50.27591" lon="5.13465">
        <ele>280.212571685</ele>
        <time>2017-05-25T13:57:59Z</time>
      </trkpt>
      <trkpt lat="50.27596" lon="5.13487">
        <ele>280.76984090434</ele>
        <time>2017-05-25T13:58:03Z</time>
      </trkpt>
      <trkpt lat="50.276" lon="5.13509">
        <ele>281.59138277174</ele>
        <time>2017-05-25T13:58:08Z</time>
      </trkpt>
      <trkpt lat="50.27596" lon="5.13497">
        <ele>284.34436834964</ele>
        <time>2017-05-25T13:58:35Z</time>
      </trkpt>
      <trkpt lat="50.27594" lon="5.13471">
        <ele>283.67661634226</ele>
        <time>2017-05-25T13:58:40Z</time>
      </trkpt>
      <trkpt lat="50.27588" lon="5.13445">
        <ele>283.06341994588</ele>
        <time>2017-05-25T13:58:45Z</time>
      </trkpt>
      <trkpt lat="50.27583" lon="5.13415">
        <ele>278.52529383602</ele>
        <time>2017-05-25T13:58:50Z</time>
      </trkpt>
      <trkpt lat="50.27579" lon="5.13389">
        <ele>275.15569867612</ele>
        <time>2017-05-25T13:58:54Z</time>
      </trkpt>
      <trkpt lat="50.27574" lon="5.13362">
        <ele>272.63439056761</ele>
        <time>2017-05-25T13:58:58Z</time>
      </trkpt>
      <trkpt lat="50.27569" lon="5.13333">
        <ele>270.06838276355</ele>
        <time>2017-05-25T13:59:02Z</time>
      </trkpt>
      <trkpt lat="50.27575" lon="5.13289">
        <ele>266.96124008566</ele>
        <time>2017-05-25T13:59:07Z</time>
      </trkpt>
      <trkpt lat="50.2759" lon="5.13253">
        <ele>265.70536458751</ele>
        <time>2017-05-25T13:59:11Z</time>
      </trkpt>
      <trkpt lat="50.27612" lon="5.13226">
        <ele>266.91264724182</ele>
        <time>2017-05-25T13:59:15Z</time>
      </trkpt>
      <trkpt lat="50.27639" lon="5.13198">
        <ele>268.63126279864</ele>
        <time>2017-05-25T13:59:20Z</time>
      </trkpt>
      <trkpt lat="50.27665" lon="5.13164">
        <ele>268.5741689201</ele>
        <time>2017-05-25T13:59:25Z</time>
      </trkpt>
      <trkpt lat="50.27683" lon="5.13136">
        <ele>268.91993051231</ele>
        <time>2017-05-25T13:59:29Z</time>
      </trkpt>
      <trkpt lat="50.27695" lon="5.13123">
        <ele>269.65062495661</ele>
        <time>2017-05-25T13:59:34Z</time>
      </trkpt>
      <trkpt lat="50.27691" lon="5.13111">
        <ele>283.88651979382</ele>
        <time>2017-05-25T14:05:37Z</time>
      </trkpt>
      <trkpt lat="50.27689" lon="5.13097">
        <ele>288.08992660015</ele>
        <time>2017-05-25T14:06:42Z</time>
      </trkpt>
      <trkpt lat="50.27693" lon="5.13106">
        <ele>291.88088852617</ele>
        <time>2017-05-25T14:07:17Z</time>
      </trkpt>
      <trkpt lat="50.27687" lon="5.13096">
        <ele>290.31622135203</ele>
        <time>2017-05-25T14:08:12Z</time>
      </trkpt>
      <trkpt lat="50.27696" lon="5.13097">
        <ele>284.03441805186</ele>
        <time>2017-05-25T14:11:02Z</time>
      </trkpt>
      <trkpt lat="50.27689" lon="5.13102">
        <ele>282.02066491917</ele>
        <time>2017-05-25T14:13:35Z</time>
      </trkpt>
      <trkpt lat="50.27695" lon="5.13113">
        <ele>288.85360626182</ele>
        <time>2017-05-25T14:16:01Z</time>
      </trkpt>
      <trkpt lat="50.27687" lon="5.13108">
        <ele>287.76796411241</ele>
        <time>2017-05-25T14:16:17Z</time>
      </trkpt>
      <trkpt lat="50.27694" lon="5.13115">
        <ele>286.15459015422</ele>
        <time>2017-05-25T14:16:49Z</time>
      </trkpt>
      <trkpt lat="50.27701" lon="5.13118">
        <ele>285.04276394359</ele>
        <time>2017-05-25T14:17:37Z</time>
      </trkpt>
      <trkpt lat="50.27716" lon="5.13126">
        <ele>285.70143752629</ele>
        <time>2017-05-25T14:17:42Z</time>
      </trkpt>
      <trkpt lat="50.27734" lon="5.13141">
        <ele>288.74116899786</ele>
        <time>2017-05-25T14:17:47Z</time>
      </trkpt>
      <trkpt lat="50.27755" lon="5.13163">
        <ele>287.82278865859</ele>
        <time>2017-05-25T14:17:52Z</time>
      </trkpt>
      <trkpt lat="50.27768" lon="5.13184">
        <ele>287.70452337464</ele>
        <time>2017-05-25T14:17:56Z</time>
      </trkpt>
      <trkpt lat="50.27778" lon="5.13205">
        <ele>289.24836014571</ele>
        <time>2017-05-25T14:18:00Z</time>
      </trkpt>
      <trkpt lat="50.27787" lon="5.13218">
        <ele>289.58809164157</ele>
        <time>2017-05-25T14:18:04Z</time>
      </trkpt>
      <trkpt lat="50.27803" lon="5.13235">
        <ele>290.21862574015</ele>
        <time>2017-05-25T14:18:09Z</time>
      </trkpt>
      <trkpt lat="50.27802" lon="5.13222">
        <ele>289.88081901857</ele>
        <time>2017-05-25T14:18:14Z</time>
      </trkpt>
      <trkpt lat="50.27787" lon="5.13203">
        <ele>286.10042765326</ele>
        <time>2017-05-25T14:18:19Z</time>
      </trkpt>
      <trkpt lat="50.27775" lon="5.13189">
        <ele>284.37790587979</ele>
        <time>2017-05-25T14:18:23Z</time>
      </trkpt>
      <trkpt lat="50.27771" lon="5.13179">
        <ele>281.82644212673</ele>
        <time>2017-05-25T14:18:37Z</time>
      </trkpt>
      <trkpt lat="50.27758" lon="5.13154">
        <ele>275.61634815245</ele>
        <time>2017-05-25T14:18:42Z</time>
      </trkpt>
      <trkpt lat="50.27739" lon="5.13137">
        <ele>273.04779457989</ele>
        <time>2017-05-25T14:18:46Z</time>
      </trkpt>
      <trkpt lat="50.27717" lon="5.13121">
        <ele>274.57827689107</ele>
        <time>2017-05-25T14:18:51Z</time>
      </trkpt>
      <trkpt lat="50.27701" lon="5.13111">
        <ele>273.49700413896</ele>
        <time>2017-05-25T14:18:55Z</time>
      </trkpt>
      <trkpt lat="50.27692" lon="5.13103">
        <ele>273.77099214595</ele>
        <time>2017-05-25T14:18:59Z</time>
      </trkpt>
      <trkpt lat="50.27695" lon="5.13116">
        <ele>272.68689603369</ele>
        <time>2017-05-25T14:31:00Z</time>
      </trkpt>
      <trkpt lat="50.27675" lon="5.13143">
        <ele>276.2357191638</ele>
        <time>2017-05-25T14:31:04Z</time>
      </trkpt>
      <trkpt lat="50.27648" lon="5.13185">
        <ele>277.54804597094</ele>
        <time>2017-05-25T14:31:09Z</time>
      </trkpt>
      <trkpt lat="50.2762" lon="5.1322">
        <ele>275.2419831218</ele>
        <time>2017-05-25T14:31:14Z</time>
      </trkpt>
      <trkpt lat="50.27595" lon="5.13246">
        <ele>269.7686843233</ele>
        <time>2017-05-25T14:31:19Z</time>
      </trkpt>
      <trkpt lat="50.27578" lon="5.13271">
        <ele>268.60044042113</ele>
        <time>2017-05-25T14:31:23Z</time>
      </trkpt>
      <trkpt lat="50.27565" lon="5.13309">
        <ele>270.30480579039</ele>
        <time>2017-05-25T14:31:28Z</time>
      </trkpt>
      <trkpt lat="50.27564" lon="5.13344">
        <ele>276.7656869909</ele>
        <time>2017-05-25T14:31:33Z</time>
      </trkpt>
      <trkpt lat="50.27566" lon="5.13365">
        <ele>277.21456411125</ele>
        <time>2017-05-25T14:31:37Z</time>
      </trkpt>
      <trkpt lat="50.2757" lon="5.13395">
        <ele>282.72458573852</ele>
        <time>2017-05-25T14:31:42Z</time>
      </trkpt>
      <trkpt lat="50.27576" lon="5.13416">
        <ele>282.82727561408</ele>
        <time>2017-05-25T14:31:46Z</time>
      </trkpt>
      <trkpt lat="50.27584" lon="5.13445">
        <ele>280.77732812001</ele>
        <time>2017-05-25T14:31:51Z</time>
      </trkpt>
      <trkpt lat="50.27591" lon="5.13472">
        <ele>280.51949880228</ele>
        <time>2017-05-25T14:31:56Z</time>
      </trkpt>
      <trkpt lat="50.27596" lon="5.13495">
        <ele>282.67680937459</ele>
        <time>2017-05-25T14:32:00Z</time>
      </trkpt>
      <trkpt lat="50.276" lon="5.13521">
        <ele>282.82378374144</ele>
        <time>2017-05-25T14:32:04Z</time>
      </trkpt>
      <trkpt lat="50.27603" lon="5.13546">
        <ele>282.31073617224</ele>
        <time>2017-05-25T14:32:08Z</time>
      </trkpt>
      <trkpt lat="50.27606" lon="5.1357">
        <ele>282.41725815993</ele>
        <time>2017-05-25T14:32:12Z</time>
      </trkpt>
      <trkpt lat="50.27607" lon="5.13592">
        <ele>282.49520547809</ele>
        <time>2017-05-25T14:32:16Z</time>
      </trkpt>
      <trkpt lat="50.27599" lon="5.13621">
        <ele>282.01708625767</ele>
        <time>2017-05-25T14:32:21Z</time>
      </trkpt>
      <trkpt lat="50.27585" lon="5.13644">
        <ele>284.17824280737</ele>
        <time>2017-05-25T14:32:26Z</time>
      </trkpt>
      <trkpt lat="50.2757" lon="5.13664">
        <ele>285.512445439</ele>
        <time>2017-05-25T14:32:30Z</time>
      </trkpt>
      <trkpt lat="50.27549" lon="5.13686">
        <ele>287.12442306632</ele>
        <time>2017-05-25T14:32:35Z</time>
      </trkpt>
      <trkpt lat="50.27534" lon="5.137">
        <ele>289.22761882937</ele>
        <time>2017-05-25T14:32:39Z</time>
      </trkpt>
      <trkpt lat="50.27519" lon="5.13716">
        <ele>290.38455912123</ele>
        <time>2017-05-25T14:32:43Z</time>
      </trkpt>
      <trkpt lat="50.27501" lon="5.13737">
        <ele>293.98793633583</ele>
        <time>2017-05-25T14:32:48Z</time>
      </trkpt>
      <trkpt lat="50.27487" lon="5.1376">
        <ele>297.99232654664</ele>
        <time>2017-05-25T14:32:52Z</time>
      </trkpt>
      <trkpt lat="50.27471" lon="5.13795">
        <ele>297.41164500598</ele>
        <time>2017-05-25T14:32:57Z</time>
      </trkpt>
      <trkpt lat="50.27457" lon="5.13826">
        <ele>297.06780553085</ele>
        <time>2017-05-25T14:33:01Z</time>
      </trkpt>
      <trkpt lat="50.27438" lon="5.13865">
        <ele>297.70657325717</ele>
        <time>2017-05-25T14:33:06Z</time>
      </trkpt>
      <trkpt lat="50.27422" lon="5.13893">
        <ele>296.05195013403</ele>
        <time>2017-05-25T14:33:10Z</time>
      </trkpt>
      <trkpt lat="50.27402" lon="5.13928">
        <ele>294.93750533472</ele>
        <time>2017-05-25T14:33:15Z</time>
      </trkpt>
      <trkpt lat="50.27386" lon="5.13956">
        <ele>295.41234051066</ele>
        <time>2017-05-25T14:33:19Z</time>
      </trkpt>
      <trkpt lat="50.27369" lon="5.13992">
        <ele>300.13973566206</ele>
        <time>2017-05-25T14:33:24Z</time>
      </trkpt>
      <trkpt lat="50.2736" lon="5.14016">
        <ele>305.75669640564</ele>
        <time>2017-05-25T14:33:28Z</time>
      </trkpt>
      <trkpt lat="50.2735" lon="5.1405">
        <ele>309.44958951226</ele>
        <time>2017-05-25T14:33:32Z</time>
      </trkpt>
      <trkpt lat="50.2734" lon="5.14089">
        <ele>308.81497339991</ele>
        <time>2017-05-25T14:33:37Z</time>
      </trkpt>
      <trkpt lat="50.27336" lon="5.14103">
        <ele>306.39639641479</ele>
        <time>2017-05-25T14:33:41Z</time>
      </trkpt>
      <trkpt lat="50.27327" lon="5.1412">
        <ele>301.35194853655</ele>
        <time>2017-05-25T14:33:45Z</time>
      </trkpt>
      <trkpt lat="50.27315" lon="5.14145">
        <ele>304.02121096581</ele>
        <time>2017-05-25T14:33:49Z</time>
      </trkpt>
      <trkpt lat="50.27307" lon="5.14163">
        <ele>305.48006300463</ele>
        <time>2017-05-25T14:33:53Z</time>
      </trkpt>
      <trkpt lat="50.27299" lon="5.14181">
        <ele>311.15498567864</ele>
        <time>2017-05-25T14:33:57Z</time>
      </trkpt>
      <trkpt lat="50.27289" lon="5.14204">
        <ele>316.35392442473</ele>
        <time>2017-05-25T14:34:02Z</time>
      </trkpt>
      <trkpt lat="50.27277" lon="5.14229">
        <ele>322.22723335883</ele>
        <time>2017-05-25T14:34:06Z</time>
      </trkpt>
      <trkpt lat="50.27265" lon="5.14255">
        <ele>324.09629213184</ele>
        <time>2017-05-25T14:34:10Z</time>
      </trkpt>
      <trkpt lat="50.27256" lon="5.1428">
        <ele>321.05009813552</ele>
        <time>2017-05-25T14:34:15Z</time>
      </trkpt>
      <trkpt lat="50.27252" lon="5.14304">
        <ele>320.12781674706</ele>
        <time>2017-05-25T14:34:20Z</time>
      </trkpt>
      <trkpt lat="50.27258" lon="5.14329">
        <ele>317.6903317738</ele>
        <time>2017-05-25T14:34:24Z</time>
      </trkpt>
      <trkpt lat="50.27264" lon="5.14358">
        <ele>316.06214983578</ele>
        <time>2017-05-25T14:34:28Z</time>
      </trkpt>
      <trkpt lat="50.27273" lon="5.14404">
        <ele>315.99737253424</ele>
        <time>2017-05-25T14:34:33Z</time>
      </trkpt>
      <trkpt lat="50.2728" lon="5.14452">
        <ele>318.65783578015</ele>
        <time>2017-05-25T14:34:38Z</time>
      </trkpt>
      <trkpt lat="50.27285" lon="5.14491">
        <ele>324.32992211571</ele>
        <time>2017-05-25T14:34:42Z</time>
      </trkpt>
      <trkpt lat="50.27291" lon="5.1454">
        <ele>323.22294857236</ele>
        <time>2017-05-25T14:34:47Z</time>
      </trkpt>
      <trkpt lat="50.27294" lon="5.14579">
        <ele>321.10654241469</ele>
        <time>2017-05-25T14:34:51Z</time>
      </trkpt>
      <trkpt lat="50.27299" lon="5.14626">
        <ele>321.22636207656</ele>
        <time>2017-05-25T14:34:56Z</time>
      </trkpt>
      <trkpt lat="50.27306" lon="5.14664">
        <ele>320.30441066112</ele>
        <time>2017-05-25T14:35:00Z</time>
      </trkpt>
      <trkpt lat="50.27315" lon="5.14703">
        <ele>321.38715609495</ele>
        <time>2017-05-25T14:35:04Z</time>
      </trkpt>
      <trkpt lat="50.27325" lon="5.14743">
        <ele>324.40601091427</ele>
        <time>2017-05-25T14:35:08Z</time>
      </trkpt>
      <trkpt lat="50.27337" lon="5.1479">
        <ele>326.53047064923</ele>
        <time>2017-05-25T14:35:13Z</time>
      </trkpt>
      <trkpt lat="50.27348" lon="5.14827">
        <ele>326.68624630105</ele>
        <time>2017-05-25T14:35:17Z</time>
      </trkpt>
      <trkpt lat="50.27362" lon="5.14872">
        <ele>324.94105147329</ele>
        <time>2017-05-25T14:35:22Z</time>
      </trkpt>
      <trkpt lat="50.27377" lon="5.14917">
        <ele>322.12718272675</ele>
        <time>2017-05-25T14:35:27Z</time>
      </trkpt>
      <trkpt lat="50.27388" lon="5.14953">
        <ele>321.24571347547</ele>
        <time>2017-05-25T14:35:31Z</time>
      </trkpt>
      <trkpt lat="50.27402" lon="5.14998">
        <ele>321.25001894946</ele>
        <time>2017-05-25T14:35:36Z</time>
      </trkpt>
      <trkpt lat="50.27412" lon="5.15046">
        <ele>323.28049010065</ele>
        <time>2017-05-25T14:35:41Z</time>
      </trkpt>
      <trkpt lat="50.27418" lon="5.15093">
        <ele>324.28251703972</ele>
        <time>2017-05-25T14:35:46Z</time>
      </trkpt>
      <trkpt lat="50.2742" lon="5.15128">
        <ele>325.88232726657</ele>
        <time>2017-05-25T14:35:50Z</time>
      </trkpt>
      <trkpt lat="50.27422" lon="5.15175">
        <ele>328.11484343143</ele>
        <time>2017-05-25T14:35:55Z</time>
      </trkpt>
      <trkpt lat="50.27424" lon="5.15211">
        <ele>330.18074947565</ele>
        <time>2017-05-25T14:35:59Z</time>
      </trkpt>
      <trkpt lat="50.27428" lon="5.15257">
        <ele>329.66940009077</ele>
        <time>2017-05-25T14:36:04Z</time>
      </trkpt>
      <trkpt lat="50.27429" lon="5.15291">
        <ele>329.86381666854</ele>
        <time>2017-05-25T14:36:08Z</time>
      </trkpt>
      <trkpt lat="50.2743" lon="5.15331">
        <ele>331.61316760679</ele>
        <time>2017-05-25T14:36:13Z</time>
      </trkpt>
      <trkpt lat="50.27433" lon="5.15365">
        <ele>329.94141131772</ele>
        <time>2017-05-25T14:36:17Z</time>
      </trkpt>
      <trkpt lat="50.2744" lon="5.15404">
        <ele>328.39634813514</ele>
        <time>2017-05-25T14:36:22Z</time>
      </trkpt>
      <trkpt lat="50.27447" lon="5.15436">
        <ele>329.60825497315</ele>
        <time>2017-05-25T14:36:26Z</time>
      </trkpt>
      <trkpt lat="50.27455" lon="5.15478">
        <ele>333.73500561529</ele>
        <time>2017-05-25T14:36:31Z</time>
      </trkpt>
      <trkpt lat="50.27464" lon="5.15511">
        <ele>334.25371298549</ele>
        <time>2017-05-25T14:36:35Z</time>
      </trkpt>
      <trkpt lat="50.27474" lon="5.15551">
        <ele>335.35652074712</ele>
        <time>2017-05-25T14:36:40Z</time>
      </trkpt>
      <trkpt lat="50.27483" lon="5.15585">
        <ele>336.24748985721</ele>
        <time>2017-05-25T14:36:44Z</time>
      </trkpt>
      <trkpt lat="50.27496" lon="5.15629">
        <ele>336.02232878876</ele>
        <time>2017-05-25T14:36:49Z</time>
      </trkpt>
      <trkpt lat="50.27507" lon="5.15666">
        <ele>336.33543721987</ele>
        <time>2017-05-25T14:36:53Z</time>
      </trkpt>
      <trkpt lat="50.27522" lon="5.15712">
        <ele>336.43615994736</ele>
        <time>2017-05-25T14:36:58Z</time>
      </trkpt>
      <trkpt lat="50.27538" lon="5.15757">
        <ele>334.76188550866</ele>
        <time>2017-05-25T14:37:03Z</time>
      </trkpt>
      <trkpt lat="50.2755" lon="5.15793">
        <ele>333.39618934563</ele>
        <time>2017-05-25T14:37:07Z</time>
      </trkpt>
      <trkpt lat="50.27562" lon="5.15831">
        <ele>332.04158538812</ele>
        <time>2017-05-25T14:37:11Z</time>
      </trkpt>
      <trkpt lat="50.27575" lon="5.15878">
        <ele>330.68235879096</ele>
        <time>2017-05-25T14:37:16Z</time>
      </trkpt>
      <trkpt lat="50.27589" lon="5.15927">
        <ele>329.77704677763</ele>
        <time>2017-05-25T14:37:21Z</time>
      </trkpt>
      <trkpt lat="50.27599" lon="5.15963">
        <ele>330.42720580682</ele>
        <time>2017-05-25T14:37:25Z</time>
      </trkpt>
      <trkpt lat="50.27611" lon="5.16001">
        <ele>330.82640763796</ele>
        <time>2017-05-25T14:37:29Z</time>
      </trkpt>
      <trkpt lat="50.27621" lon="5.16037">
        <ele>331.42612964922</ele>
        <time>2017-05-25T14:37:33Z</time>
      </trkpt>
      <trkpt lat="50.27634" lon="5.16085">
        <ele>331.97630397979</ele>
        <time>2017-05-25T14:37:38Z</time>
      </trkpt>
      <trkpt lat="50.27648" lon="5.16134">
        <ele>331.95935062139</ele>
        <time>2017-05-25T14:37:43Z</time>
      </trkpt>
      <trkpt lat="50.27664" lon="5.16181">
        <ele>331.85959588737</ele>
        <time>2017-05-25T14:37:48Z</time>
      </trkpt>
      <trkpt lat="50.27678" lon="5.16217">
        <ele>330.81262475174</ele>
        <time>2017-05-25T14:37:52Z</time>
      </trkpt>
      <trkpt lat="50.27693" lon="5.16254">
        <ele>328.22000672154</ele>
        <time>2017-05-25T14:37:56Z</time>
      </trkpt>
      <trkpt lat="50.2771" lon="5.16299">
        <ele>329.02730714363</ele>
        <time>2017-05-25T14:38:01Z</time>
      </trkpt>
      <trkpt lat="50.27725" lon="5.16333">
        <ele>330.90980674123</ele>
        <time>2017-05-25T14:38:05Z</time>
      </trkpt>
      <trkpt lat="50.27741" lon="5.16367">
        <ele>333.1216758484</ele>
        <time>2017-05-25T14:38:09Z</time>
      </trkpt>
      <trkpt lat="50.2776" lon="5.16409">
        <ele>333.26258711285</ele>
        <time>2017-05-25T14:38:14Z</time>
      </trkpt>
      <trkpt lat="50.2778" lon="5.16451">
        <ele>330.82231496613</ele>
        <time>2017-05-25T14:38:19Z</time>
      </trkpt>
      <trkpt lat="50.27793" lon="5.16486">
        <ele>327.53486610038</ele>
        <time>2017-05-25T14:38:23Z</time>
      </trkpt>
      <trkpt lat="50.27805" lon="5.16531">
        <ele>326.49197099924</ele>
        <time>2017-05-25T14:38:28Z</time>
      </trkpt>
      <trkpt lat="50.27814" lon="5.16569">
        <ele>325.92091512448</ele>
        <time>2017-05-25T14:38:32Z</time>
      </trkpt>
      <trkpt lat="50.27823" lon="5.16615">
        <ele>327.62298790321</ele>
        <time>2017-05-25T14:38:37Z</time>
      </trkpt>
      <trkpt lat="50.27832" lon="5.16658">
        <ele>329.87609169056</ele>
        <time>2017-05-25T14:38:42Z</time>
      </trkpt>
      <trkpt lat="50.27842" lon="5.16695">
        <ele>328.57473278265</ele>
        <time>2017-05-25T14:38:46Z</time>
      </trkpt>
      <trkpt lat="50.27851" lon="5.16731">
        <ele>327.40914480037</ele>
        <time>2017-05-25T14:38:50Z</time>
      </trkpt>
      <trkpt lat="50.27859" lon="5.16765">
        <ele>328.28828633167</ele>
        <time>2017-05-25T14:38:54Z</time>
      </trkpt>
      <trkpt lat="50.27866" lon="5.16801">
        <ele>330.80676299972</ele>
        <time>2017-05-25T14:38:58Z</time>
      </trkpt>
      <trkpt lat="50.27872" lon="5.16836">
        <ele>330.56103562007</ele>
        <time>2017-05-25T14:39:02Z</time>
      </trkpt>
      <trkpt lat="50.27878" lon="5.16872">
        <ele>332.83991028002</ele>
        <time>2017-05-25T14:39:06Z</time>
      </trkpt>
      <trkpt lat="50.27885" lon="5.16908">
        <ele>335.66810168964</ele>
        <time>2017-05-25T14:39:10Z</time>
      </trkpt>
      <trkpt lat="50.27894" lon="5.16941">
        <ele>337.85619733182</ele>
        <time>2017-05-25T14:39:14Z</time>
      </trkpt>
      <trkpt lat="50.27908" lon="5.16982">
        <ele>339.31768920488</ele>
        <time>2017-05-25T14:39:19Z</time>
      </trkpt>
      <trkpt lat="50.27921" lon="5.17013">
        <ele>341.5937164045</ele>
        <time>2017-05-25T14:39:23Z</time>
      </trkpt>
      <trkpt lat="50.27934" lon="5.17054">
        <ele>341.57810447571</ele>
        <time>2017-05-25T14:39:28Z</time>
      </trkpt>
      <trkpt lat="50.27945" lon="5.17084">
        <ele>342.7730666718</ele>
        <time>2017-05-25T14:39:32Z</time>
      </trkpt>
      <trkpt lat="50.27957" lon="5.17118">
        <ele>343.47755777048</ele>
        <time>2017-05-25T14:39:36Z</time>
      </trkpt>
      <trkpt lat="50.27972" lon="5.1716">
        <ele>343.17094402914</ele>
        <time>2017-05-25T14:39:41Z</time>
      </trkpt>
      <trkpt lat="50.27986" lon="5.17195">
        <ele>341.92727771068</ele>
        <time>2017-05-25T14:39:45Z</time>
      </trkpt>
      <trkpt lat="50.27998" lon="5.17229">
        <ele>341.77610313924</ele>
        <time>2017-05-25T14:39:49Z</time>
      </trkpt>
      <trkpt lat="50.28011" lon="5.17258">
        <ele>341.82353696292</ele>
        <time>2017-05-25T14:39:53Z</time>
      </trkpt>
      <trkpt lat="50.28024" lon="5.17292">
        <ele>342.53088074627</ele>
        <time>2017-05-25T14:39:57Z</time>
      </trkpt>
      <trkpt lat="50.28041" lon="5.17331">
        <ele>340.99480295829</ele>
        <time>2017-05-25T14:40:02Z</time>
      </trkpt>
      <trkpt lat="50.28054" lon="5.17361">
        <ele>339.54777143625</ele>
        <time>2017-05-25T14:40:06Z</time>
      </trkpt>
      <trkpt lat="50.28071" lon="5.174">
        <ele>340.58326921433</ele>
        <time>2017-05-25T14:40:11Z</time>
      </trkpt>
      <trkpt lat="50.28085" lon="5.17433">
        <ele>340.97802115412</ele>
        <time>2017-05-25T14:40:15Z</time>
      </trkpt>
      <trkpt lat="50.28102" lon="5.17473">
        <ele>339.29067306214</ele>
        <time>2017-05-25T14:40:20Z</time>
      </trkpt>
      <trkpt lat="50.28116" lon="5.17504">
        <ele>339.01110881427</ele>
        <time>2017-05-25T14:40:24Z</time>
      </trkpt>
      <trkpt lat="50.2813" lon="5.17547">
        <ele>344.1511530532</ele>
        <time>2017-05-25T14:40:29Z</time>
      </trkpt>
      <trkpt lat="50.28146" lon="5.17582">
        <ele>344.52450735551</ele>
        <time>2017-05-25T14:40:33Z</time>
      </trkpt>
      <trkpt lat="50.28166" lon="5.1762">
        <ele>342.35633693293</ele>
        <time>2017-05-25T14:40:38Z</time>
      </trkpt>
      <trkpt lat="50.28187" lon="5.17659">
        <ele>341.01787638701</ele>
        <time>2017-05-25T14:40:43Z</time>
      </trkpt>
      <trkpt lat="50.28203" lon="5.1769">
        <ele>340.4632651751</ele>
        <time>2017-05-25T14:40:47Z</time>
      </trkpt>
      <trkpt lat="50.28218" lon="5.17721">
        <ele>339.7979441991</ele>
        <time>2017-05-25T14:40:51Z</time>
      </trkpt>
      <trkpt lat="50.28234" lon="5.17753">
        <ele>340.05087700838</ele>
        <time>2017-05-25T14:40:55Z</time>
      </trkpt>
      <trkpt lat="50.28253" lon="5.17792">
        <ele>340.37283556104</ele>
        <time>2017-05-25T14:41:00Z</time>
      </trkpt>
      <trkpt lat="50.28269" lon="5.17824">
        <ele>339.98505168437</ele>
        <time>2017-05-25T14:41:04Z</time>
      </trkpt>
      <trkpt lat="50.28286" lon="5.17858">
        <ele>339.8775868176</ele>
        <time>2017-05-25T14:41:08Z</time>
      </trkpt>
      <trkpt lat="50.28307" lon="5.179">
        <ele>338.73615017095</ele>
        <time>2017-05-25T14:41:13Z</time>
      </trkpt>
      <trkpt lat="50.28322" lon="5.17933">
        <ele>338.98909186864</ele>
        <time>2017-05-25T14:41:17Z</time>
      </trkpt>
      <trkpt lat="50.28341" lon="5.17975">
        <ele>341.50643723796</ele>
        <time>2017-05-25T14:41:22Z</time>
      </trkpt>
      <trkpt lat="50.28358" lon="5.18017">
        <ele>343.3197552372</ele>
        <time>2017-05-25T14:41:27Z</time>
      </trkpt>
      <trkpt lat="50.28375" lon="5.1806">
        <ele>343.40031695578</ele>
        <time>2017-05-25T14:41:32Z</time>
      </trkpt>
      <trkpt lat="50.28389" lon="5.18093">
        <ele>345.05088175662</ele>
        <time>2017-05-25T14:41:36Z</time>
      </trkpt>
      <trkpt lat="50.28403" lon="5.18127">
        <ele>345.66375553557</ele>
        <time>2017-05-25T14:41:40Z</time>
      </trkpt>
      <trkpt lat="50.28421" lon="5.1817">
        <ele>343.25237181481</ele>
        <time>2017-05-25T14:41:45Z</time>
      </trkpt>
      <trkpt lat="50.28437" lon="5.18203">
        <ele>340.66865332385</ele>
        <time>2017-05-25T14:41:49Z</time>
      </trkpt>
      <trkpt lat="50.28455" lon="5.18244">
        <ele>337.51275739206</ele>
        <time>2017-05-25T14:41:54Z</time>
      </trkpt>
      <trkpt lat="50.28469" lon="5.18277">
        <ele>335.97431988589</ele>
        <time>2017-05-25T14:41:58Z</time>
      </trkpt>
      <trkpt lat="50.28482" lon="5.18312">
        <ele>334.66071848398</ele>
        <time>2017-05-25T14:42:02Z</time>
      </trkpt>
      <trkpt lat="50.28495" lon="5.18346">
        <ele>334.07695258872</ele>
        <time>2017-05-25T14:42:06Z</time>
      </trkpt>
      <trkpt lat="50.28509" lon="5.18379">
        <ele>334.15190542262</ele>
        <time>2017-05-25T14:42:10Z</time>
      </trkpt>
      <trkpt lat="50.28522" lon="5.18411">
        <ele>335.11292128166</ele>
        <time>2017-05-25T14:42:14Z</time>
      </trkpt>
      <trkpt lat="50.28538" lon="5.18455">
        <ele>335.31780232905</ele>
        <time>2017-05-25T14:42:19Z</time>
      </trkpt>
      <trkpt lat="50.28552" lon="5.18489">
        <ele>334.76273134387</ele>
        <time>2017-05-25T14:42:23Z</time>
      </trkpt>
      <trkpt lat="50.28568" lon="5.18522">
        <ele>334.69216872652</ele>
        <time>2017-05-25T14:42:27Z</time>
      </trkpt>
      <trkpt lat="50.28584" lon="5.18554">
        <ele>334.44091144058</ele>
        <time>2017-05-25T14:42:31Z</time>
      </trkpt>
      <trkpt lat="50.28599" lon="5.18586">
        <ele>333.9855959199</ele>
        <time>2017-05-25T14:42:35Z</time>
      </trkpt>
      <trkpt lat="50.28615" lon="5.18619">
        <ele>333.8185489003</ele>
        <time>2017-05-25T14:42:39Z</time>
      </trkpt>
      <trkpt lat="50.28629" lon="5.18649">
        <ele>332.93716433642</ele>
        <time>2017-05-25T14:42:43Z</time>
      </trkpt>
      <trkpt lat="50.28646" lon="5.18689">
        <ele>333.52615120221</ele>
        <time>2017-05-25T14:42:48Z</time>
      </trkpt>
      <trkpt lat="50.28662" lon="5.18736">
        <ele>333.87687674153</ele>
        <time>2017-05-25T14:42:53Z</time>
      </trkpt>
      <trkpt lat="50.28678" lon="5.18782">
        <ele>334.12421326547</ele>
        <time>2017-05-25T14:42:58Z</time>
      </trkpt>
      <trkpt lat="50.2869" lon="5.18818">
        <ele>334.71022697004</ele>
        <time>2017-05-25T14:43:02Z</time>
      </trkpt>
      <trkpt lat="50.28703" lon="5.1885">
        <ele>334.22539089979</ele>
        <time>2017-05-25T14:43:06Z</time>
      </trkpt>
      <trkpt lat="50.28718" lon="5.18892">
        <ele>332.51463278968</ele>
        <time>2017-05-25T14:43:11Z</time>
      </trkpt>
      <trkpt lat="50.2873" lon="5.18923">
        <ele>331.54295207106</ele>
        <time>2017-05-25T14:43:15Z</time>
      </trkpt>
      <trkpt lat="50.28739" lon="5.1895">
        <ele>331.23276721598</ele>
        <time>2017-05-25T14:43:19Z</time>
      </trkpt>
      <trkpt lat="50.28749" lon="5.18982">
        <ele>329.55723021017</ele>
        <time>2017-05-25T14:43:23Z</time>
      </trkpt>
      <trkpt lat="50.28761" lon="5.19011">
        <ele>328.94826574713</ele>
        <time>2017-05-25T14:43:27Z</time>
      </trkpt>
      <trkpt lat="50.2877" lon="5.19042">
        <ele>329.95509797106</ele>
        <time>2017-05-25T14:43:31Z</time>
      </trkpt>
      <trkpt lat="50.28784" lon="5.1908">
        <ele>332.69020784739</ele>
        <time>2017-05-25T14:43:36Z</time>
      </trkpt>
      <trkpt lat="50.28796" lon="5.19115">
        <ele>332.62269598876</ele>
        <time>2017-05-25T14:43:40Z</time>
      </trkpt>
      <trkpt lat="50.28806" lon="5.19149">
        <ele>333.83421775679</ele>
        <time>2017-05-25T14:43:44Z</time>
      </trkpt>
      <trkpt lat="50.28822" lon="5.19189">
        <ele>333.89598491297</ele>
        <time>2017-05-25T14:43:49Z</time>
      </trkpt>
      <trkpt lat="50.28834" lon="5.19224">
        <ele>333.76982618644</ele>
        <time>2017-05-25T14:43:53Z</time>
      </trkpt>
      <trkpt lat="50.28847" lon="5.19267">
        <ele>332.67201929185</ele>
        <time>2017-05-25T14:43:58Z</time>
      </trkpt>
      <trkpt lat="50.28855" lon="5.19305">
        <ele>333.98360836038</ele>
        <time>2017-05-25T14:44:02Z</time>
      </trkpt>
      <trkpt lat="50.28865" lon="5.19346">
        <ele>335.54232884678</ele>
        <time>2017-05-25T14:44:07Z</time>
      </trkpt>
      <trkpt lat="50.28873" lon="5.1938">
        <ele>334.04665209227</ele>
        <time>2017-05-25T14:44:11Z</time>
      </trkpt>
      <trkpt lat="50.28885" lon="5.19419">
        <ele>333.24442697536</ele>
        <time>2017-05-25T14:44:15Z</time>
      </trkpt>
      <trkpt lat="50.28895" lon="5.19456">
        <ele>335.97160187295</ele>
        <time>2017-05-25T14:44:19Z</time>
      </trkpt>
      <trkpt lat="50.28904" lon="5.19492">
        <ele>339.94776136894</ele>
        <time>2017-05-25T14:44:23Z</time>
      </trkpt>
      <trkpt lat="50.28913" lon="5.1953">
        <ele>340.47873135261</ele>
        <time>2017-05-25T14:44:27Z</time>
      </trkpt>
      <trkpt lat="50.28924" lon="5.19569">
        <ele>337.23634144958</ele>
        <time>2017-05-25T14:44:31Z</time>
      </trkpt>
      <trkpt lat="50.28943" lon="5.19615">
        <ele>337.72580366728</ele>
        <time>2017-05-25T14:44:36Z</time>
      </trkpt>
      <trkpt lat="50.28961" lon="5.19653">
        <ele>332.81854664508</ele>
        <time>2017-05-25T14:44:41Z</time>
      </trkpt>
      <trkpt lat="50.28967" lon="5.19666">
        <ele>329.55011713339</ele>
        <time>2017-05-25T14:44:45Z</time>
      </trkpt>
      <trkpt lat="50.28987" lon="5.19708">
        <ele>322.102796557</ele>
        <time>2017-05-25T14:44:49Z</time>
      </trkpt>
      <trkpt lat="50.29005" lon="5.19747">
        <ele>316.22907346306</ele>
        <time>2017-05-25T14:44:54Z</time>
      </trkpt>
      <trkpt lat="50.2902" lon="5.19778">
        <ele>316.73214693038</ele>
        <time>2017-05-25T14:44:58Z</time>
      </trkpt>
      <trkpt lat="50.29035" lon="5.19818">
        <ele>318.08804298708</ele>
        <time>2017-05-25T14:45:03Z</time>
      </trkpt>
      <trkpt lat="50.29047" lon="5.19853">
        <ele>316.71924471673</ele>
        <time>2017-05-25T14:45:07Z</time>
      </trkpt>
      <trkpt lat="50.29057" lon="5.1989">
        <ele>317.45032096324</ele>
        <time>2017-05-25T14:45:11Z</time>
      </trkpt>
      <trkpt lat="50.29072" lon="5.19928">
        <ele>318.124545928</ele>
        <time>2017-05-25T14:45:15Z</time>
      </trkpt>
      <trkpt lat="50.29086" lon="5.19962">
        <ele>321.32442950096</ele>
        <time>2017-05-25T14:45:19Z</time>
      </trkpt>
      <trkpt lat="50.29096" lon="5.19997">
        <ele>327.73718332737</ele>
        <time>2017-05-25T14:45:23Z</time>
      </trkpt>
      <trkpt lat="50.29106" lon="5.20042">
        <ele>334.56609701049</ele>
        <time>2017-05-25T14:45:28Z</time>
      </trkpt>
      <trkpt lat="50.29117" lon="5.20072">
        <ele>338.14559404219</ele>
        <time>2017-05-25T14:45:32Z</time>
      </trkpt>
      <trkpt lat="50.2913" lon="5.20109">
        <ele>332.46221860323</ele>
        <time>2017-05-25T14:45:37Z</time>
      </trkpt>
      <trkpt lat="50.29145" lon="5.20153">
        <ele>324.73122007081</ele>
        <time>2017-05-25T14:45:42Z</time>
      </trkpt>
      <trkpt lat="50.29159" lon="5.20184">
        <ele>321.88898414521</ele>
        <time>2017-05-25T14:45:46Z</time>
      </trkpt>
      <trkpt lat="50.29175" lon="5.20224">
        <ele>323.01059467601</ele>
        <time>2017-05-25T14:45:51Z</time>
      </trkpt>
      <trkpt lat="50.29187" lon="5.20257">
        <ele>323.85488964948</ele>
        <time>2017-05-25T14:45:55Z</time>
      </trkpt>
      <trkpt lat="50.292" lon="5.20289">
        <ele>324.26939702047</ele>
        <time>2017-05-25T14:45:59Z</time>
      </trkpt>
      <trkpt lat="50.29214" lon="5.20324">
        <ele>323.47956476679</ele>
        <time>2017-05-25T14:46:03Z</time>
      </trkpt>
      <trkpt lat="50.29232" lon="5.20368">
        <ele>319.96627606328</ele>
        <time>2017-05-25T14:46:08Z</time>
      </trkpt>
      <trkpt lat="50.29249" lon="5.20415">
        <ele>317.77319116717</ele>
        <time>2017-05-25T14:46:13Z</time>
      </trkpt>
      <trkpt lat="50.29264" lon="5.20451">
        <ele>315.69457185872</ele>
        <time>2017-05-25T14:46:17Z</time>
      </trkpt>
      <trkpt lat="50.29279" lon="5.20486">
        <ele>315.50943195919</ele>
        <time>2017-05-25T14:46:21Z</time>
      </trkpt>
      <trkpt lat="50.29296" lon="5.20528">
        <ele>317.61417961896</ele>
        <time>2017-05-25T14:46:26Z</time>
      </trkpt>
      <trkpt lat="50.29309" lon="5.20562">
        <ele>320.48566599147</ele>
        <time>2017-05-25T14:46:30Z</time>
      </trkpt>
      <trkpt lat="50.29323" lon="5.20589">
        <ele>324.65790316336</ele>
        <time>2017-05-25T14:46:34Z</time>
      </trkpt>
      <trkpt lat="50.2934" lon="5.20614">
        <ele>328.503505266</ele>
        <time>2017-05-25T14:46:38Z</time>
      </trkpt>
      <trkpt lat="50.29358" lon="5.20638">
        <ele>330.60095266084</ele>
        <time>2017-05-25T14:46:42Z</time>
      </trkpt>
      <trkpt lat="50.2938" lon="5.2067">
        <ele>332.59523303041</ele>
        <time>2017-05-25T14:46:47Z</time>
      </trkpt>
      <trkpt lat="50.29404" lon="5.20698">
        <ele>335.65910676241</ele>
        <time>2017-05-25T14:46:52Z</time>
      </trkpt>
      <trkpt lat="50.29429" lon="5.20717">
        <ele>336.09009654418</ele>
        <time>2017-05-25T14:46:56Z</time>
      </trkpt>
      <trkpt lat="50.29452" lon="5.20732">
        <ele>335.41985471763</ele>
        <time>2017-05-25T14:47:00Z</time>
      </trkpt>
      <trkpt lat="50.29475" lon="5.20747">
        <ele>335.08140480998</ele>
        <time>2017-05-25T14:47:04Z</time>
      </trkpt>
      <trkpt lat="50.29497" lon="5.20763">
        <ele>333.62213529908</ele>
        <time>2017-05-25T14:47:08Z</time>
      </trkpt>
      <trkpt lat="50.2952" lon="5.20781">
        <ele>331.29137472317</ele>
        <time>2017-05-25T14:47:12Z</time>
      </trkpt>
      <trkpt lat="50.29551" lon="5.20802">
        <ele>328.69411975422</ele>
        <time>2017-05-25T14:47:17Z</time>
      </trkpt>
      <trkpt lat="50.29572" lon="5.20823">
        <ele>331.19339309666</ele>
        <time>2017-05-25T14:47:21Z</time>
      </trkpt>
      <trkpt lat="50.29593" lon="5.20842">
        <ele>334.56159584511</ele>
        <time>2017-05-25T14:47:25Z</time>
      </trkpt>
      <trkpt lat="50.29616" lon="5.20859">
        <ele>334.86313652881</ele>
        <time>2017-05-25T14:47:29Z</time>
      </trkpt>
      <trkpt lat="50.29641" lon="5.20878">
        <ele>331.71349050476</ele>
        <time>2017-05-25T14:47:33Z</time>
      </trkpt>
      <trkpt lat="50.29672" lon="5.209">
        <ele>327.51283493745</ele>
        <time>2017-05-25T14:47:38Z</time>
      </trkpt>
      <trkpt lat="50.29693" lon="5.20921">
        <ele>326.12793765271</ele>
        <time>2017-05-25T14:47:42Z</time>
      </trkpt>
      <trkpt lat="50.29714" lon="5.20959">
        <ele>321.76383978881</ele>
        <time>2017-05-25T14:47:47Z</time>
      </trkpt>
      <trkpt lat="50.29732" lon="5.20991">
        <ele>320.71769920507</ele>
        <time>2017-05-25T14:47:51Z</time>
      </trkpt>
      <trkpt lat="50.29751" lon="5.21016">
        <ele>318.92441719969</ele>
        <time>2017-05-25T14:47:55Z</time>
      </trkpt>
      <trkpt lat="50.29776" lon="5.21055">
        <ele>317.84433656827</ele>
        <time>2017-05-25T14:48:00Z</time>
      </trkpt>
      <trkpt lat="50.29794" lon="5.2108">
        <ele>314.90524857438</ele>
        <time>2017-05-25T14:48:04Z</time>
      </trkpt>
      <trkpt lat="50.29809" lon="5.21102">
        <ele>313.66412736156</ele>
        <time>2017-05-25T14:48:08Z</time>
      </trkpt>
      <trkpt lat="50.29826" lon="5.21124">
        <ele>310.31970891236</ele>
        <time>2017-05-25T14:48:12Z</time>
      </trkpt>
      <trkpt lat="50.29854" lon="5.21158">
        <ele>311.029222019</ele>
        <time>2017-05-25T14:48:17Z</time>
      </trkpt>
      <trkpt lat="50.29874" lon="5.21184">
        <ele>316.03645490005</ele>
        <time>2017-05-25T14:48:22Z</time>
      </trkpt>
      <trkpt lat="50.29889" lon="5.212">
        <ele>314.56753031123</ele>
        <time>2017-05-25T14:48:26Z</time>
      </trkpt>
      <trkpt lat="50.29904" lon="5.21214">
        <ele>313.36340256971</ele>
        <time>2017-05-25T14:48:30Z</time>
      </trkpt>
      <trkpt lat="50.29938" lon="5.21219">
        <ele>313.33918585409</ele>
        <time>2017-05-25T14:48:35Z</time>
      </trkpt>
      <trkpt lat="50.29969" lon="5.21197">
        <ele>317.79563411602</ele>
        <time>2017-05-25T14:48:40Z</time>
      </trkpt>
      <trkpt lat="50.29993" lon="5.21173">
        <ele>319.0511461397</ele>
        <time>2017-05-25T14:48:44Z</time>
      </trkpt>
      <trkpt lat="50.30019" lon="5.21143">
        <ele>318.58990802729</ele>
        <time>2017-05-25T14:48:49Z</time>
      </trkpt>
      <trkpt lat="50.3004" lon="5.21126">
        <ele>318.2937515599</ele>
        <time>2017-05-25T14:48:53Z</time>
      </trkpt>
      <trkpt lat="50.30064" lon="5.21104">
        <ele>318.65481702889</ele>
        <time>2017-05-25T14:48:58Z</time>
      </trkpt>
      <trkpt lat="50.30085" lon="5.21085">
        <ele>319.30486419405</ele>
        <time>2017-05-25T14:49:02Z</time>
      </trkpt>
      <trkpt lat="50.30108" lon="5.21062">
        <ele>319.93909749902</ele>
        <time>2017-05-25T14:49:06Z</time>
      </trkpt>
      <trkpt lat="50.30141" lon="5.21032">
        <ele>318.91102419685</ele>
        <time>2017-05-25T14:49:11Z</time>
      </trkpt>
      <trkpt lat="50.30166" lon="5.2101">
        <ele>318.80318750201</ele>
        <time>2017-05-25T14:49:15Z</time>
      </trkpt>
      <trkpt lat="50.3018" lon="5.20995">
        <ele>317.03995501547</ele>
        <time>2017-05-25T14:49:20Z</time>
      </trkpt>
      <trkpt lat="50.30188" lon="5.20992">
        <ele>315.31215088276</ele>
        <time>2017-05-25T14:50:13Z</time>
      </trkpt>
      <trkpt lat="50.30206" lon="5.20968">
        <ele>312.75312439054</ele>
        <time>2017-05-25T14:50:18Z</time>
      </trkpt>
      <trkpt lat="50.30235" lon="5.20933">
        <ele>312.07324332184</ele>
        <time>2017-05-25T14:50:23Z</time>
      </trkpt>
      <trkpt lat="50.30271" lon="5.20897">
        <ele>317.72833380031</ele>
        <time>2017-05-25T14:50:27Z</time>
      </trkpt>
      <trkpt lat="50.3032" lon="5.20852">
        <ele>321.88363002183</ele>
        <time>2017-05-25T14:50:32Z</time>
      </trkpt>
      <trkpt lat="50.30357" lon="5.20821">
        <ele>315.34497324386</ele>
        <time>2017-05-25T14:50:36Z</time>
      </trkpt>
      <trkpt lat="50.30389" lon="5.20791">
        <ele>310.14390245227</ele>
        <time>2017-05-25T14:50:40Z</time>
      </trkpt>
      <trkpt lat="50.30415" lon="5.20768">
        <ele>305.10162009073</ele>
        <time>2017-05-25T14:50:44Z</time>
      </trkpt>
      <trkpt lat="50.30442" lon="5.20745">
        <ele>302.09791364087</ele>
        <time>2017-05-25T14:50:49Z</time>
      </trkpt>
      <trkpt lat="50.30467" lon="5.20729">
        <ele>302.35064584907</ele>
        <time>2017-05-25T14:50:54Z</time>
      </trkpt>
      <trkpt lat="50.30488" lon="5.20717">
        <ele>301.63523131022</ele>
        <time>2017-05-25T14:50:58Z</time>
      </trkpt>
      <trkpt lat="50.30508" lon="5.2071">
        <ele>300.76520814124</ele>
        <time>2017-05-25T14:51:02Z</time>
      </trkpt>
      <trkpt lat="50.30536" lon="5.207">
        <ele>299.7471255659</ele>
        <time>2017-05-25T14:51:07Z</time>
      </trkpt>
      <trkpt lat="50.30558" lon="5.20691">
        <ele>300.80159431418</ele>
        <time>2017-05-25T14:51:11Z</time>
      </trkpt>
      <trkpt lat="50.30588" lon="5.207">
        <ele>302.32239717691</ele>
        <time>2017-05-25T14:51:16Z</time>
      </trkpt>
      <trkpt lat="50.30603" lon="5.20736">
        <ele>306.10713991092</ele>
        <time>2017-05-25T14:51:20Z</time>
      </trkpt>
      <trkpt lat="50.30625" lon="5.2079">
        <ele>308.3820211636</ele>
        <time>2017-05-25T14:51:25Z</time>
      </trkpt>
      <trkpt lat="50.30647" lon="5.20828">
        <ele>304.90953022011</ele>
        <time>2017-05-25T14:51:29Z</time>
      </trkpt>
      <trkpt lat="50.30673" lon="5.20852">
        <ele>300.99406895712</ele>
        <time>2017-05-25T14:51:33Z</time>
      </trkpt>
      <trkpt lat="50.30696" lon="5.20874">
        <ele>299.12987397843</ele>
        <time>2017-05-25T14:51:38Z</time>
      </trkpt>
      <trkpt lat="50.30707" lon="5.20889">
        <ele>299.42516431465</ele>
        <time>2017-05-25T14:51:42Z</time>
      </trkpt>
      <trkpt lat="50.30722" lon="5.20913">
        <ele>302.47463813234</ele>
        <time>2017-05-25T14:51:47Z</time>
      </trkpt>
      <trkpt lat="50.3073" lon="5.20928">
        <ele>302.40547932148</ele>
        <time>2017-05-25T14:51:51Z</time>
      </trkpt>
      <trkpt lat="50.30744" lon="5.20925">
        <ele>303.11008784597</ele>
        <time>2017-05-25T14:51:55Z</time>
      </trkpt>
      <trkpt lat="50.30769" lon="5.20897">
        <ele>306.46540449103</ele>
        <time>2017-05-25T14:51:59Z</time>
      </trkpt>
      <trkpt lat="50.308" lon="5.2086">
        <ele>302.7186755043</ele>
        <time>2017-05-25T14:52:04Z</time>
      </trkpt>
      <trkpt lat="50.30833" lon="5.20821">
        <ele>299.9707129379</ele>
        <time>2017-05-25T14:52:09Z</time>
      </trkpt>
      <trkpt lat="50.30867" lon="5.20786">
        <ele>296.25957864977</ele>
        <time>2017-05-25T14:52:14Z</time>
      </trkpt>
      <trkpt lat="50.30897" lon="5.20751">
        <ele>292.57254975947</ele>
        <time>2017-05-25T14:52:18Z</time>
      </trkpt>
      <trkpt lat="50.30926" lon="5.20722">
        <ele>288.80420289762</ele>
        <time>2017-05-25T14:52:22Z</time>
      </trkpt>
      <trkpt lat="50.30953" lon="5.20699">
        <ele>285.77475967669</ele>
        <time>2017-05-25T14:52:26Z</time>
      </trkpt>
      <trkpt lat="50.30985" lon="5.20678">
        <ele>282.7082578486</ele>
        <time>2017-05-25T14:52:31Z</time>
      </trkpt>
      <trkpt lat="50.31011" lon="5.20658">
        <ele>282.0878652469</ele>
        <time>2017-05-25T14:52:35Z</time>
      </trkpt>
      <trkpt lat="50.31035" lon="5.20639">
        <ele>281.77668119071</ele>
        <time>2017-05-25T14:52:39Z</time>
      </trkpt>
      <trkpt lat="50.31064" lon="5.20622">
        <ele>278.16439188232</ele>
        <time>2017-05-25T14:52:44Z</time>
      </trkpt>
      <trkpt lat="50.31091" lon="5.20607">
        <ele>277.82709488055</ele>
        <time>2017-05-25T14:52:49Z</time>
      </trkpt>
      <trkpt lat="50.31114" lon="5.20592">
        <ele>283.58929978001</ele>
        <time>2017-05-25T14:52:53Z</time>
      </trkpt>
      <trkpt lat="50.31136" lon="5.20574">
        <ele>286.39409071544</ele>
        <time>2017-05-25T14:52:57Z</time>
      </trkpt>
      <trkpt lat="50.31159" lon="5.20558">
        <ele>289.93074557095</ele>
        <time>2017-05-25T14:53:02Z</time>
      </trkpt>
      <trkpt lat="50.31179" lon="5.20546">
        <ele>293.18905267303</ele>
        <time>2017-05-25T14:53:06Z</time>
      </trkpt>
      <trkpt lat="50.31206" lon="5.20528">
        <ele>295.62412301316</ele>
        <time>2017-05-25T14:53:11Z</time>
      </trkpt>
      <trkpt lat="50.31228" lon="5.20514">
        <ele>295.51800417391</ele>
        <time>2017-05-25T14:53:15Z</time>
      </trkpt>
      <trkpt lat="50.31259" lon="5.20493">
        <ele>296.05061828053</ele>
        <time>2017-05-25T14:53:20Z</time>
      </trkpt>
      <trkpt lat="50.31291" lon="5.20471">
        <ele>295.99826192051</ele>
        <time>2017-05-25T14:53:25Z</time>
      </trkpt>
      <trkpt lat="50.31318" lon="5.20454">
        <ele>294.46953781336</ele>
        <time>2017-05-25T14:53:29Z</time>
      </trkpt>
      <trkpt lat="50.31341" lon="5.20428">
        <ele>292.3334604614</ele>
        <time>2017-05-25T14:53:33Z</time>
      </trkpt>
      <trkpt lat="50.31364" lon="5.20388">
        <ele>289.36520393043</ele>
        <time>2017-05-25T14:53:37Z</time>
      </trkpt>
      <trkpt lat="50.31387" lon="5.20342">
        <ele>287.07676814299</ele>
        <time>2017-05-25T14:53:41Z</time>
      </trkpt>
      <trkpt lat="50.31414" lon="5.20284">
        <ele>285.69086532815</ele>
        <time>2017-05-25T14:53:46Z</time>
      </trkpt>
      <trkpt lat="50.31436" lon="5.20241">
        <ele>284.86700608178</ele>
        <time>2017-05-25T14:53:50Z</time>
      </trkpt>
      <trkpt lat="50.31459" lon="5.20195">
        <ele>285.20942047305</ele>
        <time>2017-05-25T14:53:54Z</time>
      </trkpt>
      <trkpt lat="50.31476" lon="5.20146">
        <ele>283.76713359296</ele>
        <time>2017-05-25T14:53:58Z</time>
      </trkpt>
      <trkpt lat="50.3148" lon="5.20093">
        <ele>281.73236732766</ele>
        <time>2017-05-25T14:54:02Z</time>
      </trkpt>
      <trkpt lat="50.31484" lon="5.20027">
        <ele>278.70715547666</ele>
        <time>2017-05-25T14:54:07Z</time>
      </trkpt>
      <trkpt lat="50.31487" lon="5.19979">
        <ele>276.30484612925</ele>
        <time>2017-05-25T14:54:11Z</time>
      </trkpt>
      <trkpt lat="50.31491" lon="5.1993">
        <ele>274.91929624557</ele>
        <time>2017-05-25T14:54:15Z</time>
      </trkpt>
      <trkpt lat="50.31496" lon="5.1987">
        <ele>272.75061857623</ele>
        <time>2017-05-25T14:54:20Z</time>
      </trkpt>
      <trkpt lat="50.31502" lon="5.19827">
        <ele>271.68638650587</ele>
        <time>2017-05-25T14:54:24Z</time>
      </trkpt>
      <trkpt lat="50.31516" lon="5.19776">
        <ele>271.71064184806</ele>
        <time>2017-05-25T14:54:29Z</time>
      </trkpt>
      <trkpt lat="50.31531" lon="5.19739">
        <ele>270.75996415077</ele>
        <time>2017-05-25T14:54:33Z</time>
      </trkpt>
      <trkpt lat="50.31551" lon="5.19694">
        <ele>270.35914462579</ele>
        <time>2017-05-25T14:54:38Z</time>
      </trkpt>
      <trkpt lat="50.31572" lon="5.19649">
        <ele>271.64098925413</ele>
        <time>2017-05-25T14:54:43Z</time>
      </trkpt>
      <trkpt lat="50.31587" lon="5.19617">
        <ele>272.48067237188</ele>
        <time>2017-05-25T14:54:47Z</time>
      </trkpt>
      <trkpt lat="50.31607" lon="5.19574">
        <ele>274.86994026544</ele>
        <time>2017-05-25T14:54:52Z</time>
      </trkpt>
      <trkpt lat="50.31631" lon="5.19538">
        <ele>275.9179251201</ele>
        <time>2017-05-25T14:54:57Z</time>
      </trkpt>
      <trkpt lat="50.3166" lon="5.19516">
        <ele>275.82625853178</ele>
        <time>2017-05-25T14:55:02Z</time>
      </trkpt>
      <trkpt lat="50.31684" lon="5.19496">
        <ele>277.33304415362</ele>
        <time>2017-05-25T14:55:06Z</time>
      </trkpt>
      <trkpt lat="50.31704" lon="5.19469">
        <ele>281.0041121415</ele>
        <time>2017-05-25T14:55:10Z</time>
      </trkpt>
      <trkpt lat="50.31721" lon="5.19435">
        <ele>281.51701065329</ele>
        <time>2017-05-25T14:55:14Z</time>
      </trkpt>
      <trkpt lat="50.31744" lon="5.19386">
        <ele>278.3308830638</ele>
        <time>2017-05-25T14:55:19Z</time>
      </trkpt>
      <trkpt lat="50.31765" lon="5.19343">
        <ele>272.75624228731</ele>
        <time>2017-05-25T14:55:23Z</time>
      </trkpt>
      <trkpt lat="50.31783" lon="5.19298">
        <ele>270.1071262746</ele>
        <time>2017-05-25T14:55:27Z</time>
      </trkpt>
      <trkpt lat="50.318" lon="5.19267">
        <ele>269.81437348118</ele>
        <time>2017-05-25T14:55:31Z</time>
      </trkpt>
      <trkpt lat="50.31816" lon="5.19245">
        <ele>269.85013329682</ele>
        <time>2017-05-25T14:55:35Z</time>
      </trkpt>
      <trkpt lat="50.31839" lon="5.19212">
        <ele>267.95479031425</ele>
        <time>2017-05-25T14:55:40Z</time>
      </trkpt>
      <trkpt lat="50.31858" lon="5.19185">
        <ele>268.32004413985</ele>
        <time>2017-05-25T14:55:44Z</time>
      </trkpt>
      <trkpt lat="50.31878" lon="5.19156">
        <ele>268.78825132339</ele>
        <time>2017-05-25T14:55:48Z</time>
      </trkpt>
      <trkpt lat="50.31892" lon="5.19118">
        <ele>268.73477692067</ele>
        <time>2017-05-25T14:55:52Z</time>
      </trkpt>
      <trkpt lat="50.31899" lon="5.19063">
        <ele>269.24529040884</ele>
        <time>2017-05-25T14:55:57Z</time>
      </trkpt>
      <trkpt lat="50.31902" lon="5.19017">
        <ele>268.89374853624</ele>
        <time>2017-05-25T14:56:01Z</time>
      </trkpt>
      <trkpt lat="50.31902" lon="5.18972">
        <ele>268.52260917252</ele>
        <time>2017-05-25T14:56:05Z</time>
      </trkpt>
      <trkpt lat="50.31903" lon="5.18921">
        <ele>268.33418662513</ele>
        <time>2017-05-25T14:56:10Z</time>
      </trkpt>
      <trkpt lat="50.31895" lon="5.1888">
        <ele>269.76451074467</ele>
        <time>2017-05-25T14:56:14Z</time>
      </trkpt>
      <trkpt lat="50.31883" lon="5.18834">
        <ele>271.86020810438</ele>
        <time>2017-05-25T14:56:19Z</time>
      </trkpt>
      <trkpt lat="50.31871" lon="5.18796">
        <ele>269.69908431033</ele>
        <time>2017-05-25T14:56:23Z</time>
      </trkpt>
      <trkpt lat="50.31859" lon="5.18755">
        <ele>265.50613828259</ele>
        <time>2017-05-25T14:56:27Z</time>
      </trkpt>
      <trkpt lat="50.3185" lon="5.18698">
        <ele>260.09040157315</ele>
        <time>2017-05-25T14:56:32Z</time>
      </trkpt>
      <trkpt lat="50.31851" lon="5.18655">
        <ele>260.02849202333</ele>
        <time>2017-05-25T14:56:36Z</time>
      </trkpt>
      <trkpt lat="50.31865" lon="5.18605">
        <ele>265.52012451896</ele>
        <time>2017-05-25T14:56:41Z</time>
      </trkpt>
      <trkpt lat="50.3188" lon="5.18568">
        <ele>268.42172873577</ele>
        <time>2017-05-25T14:56:45Z</time>
      </trkpt>
      <trkpt lat="50.319" lon="5.18538">
        <ele>268.15152556554</ele>
        <time>2017-05-25T14:56:49Z</time>
      </trkpt>
      <trkpt lat="50.31921" lon="5.18513">
        <ele>264.54844518866</ele>
        <time>2017-05-25T14:56:53Z</time>
      </trkpt>
      <trkpt lat="50.31942" lon="5.18488">
        <ele>261.31553041645</ele>
        <time>2017-05-25T14:56:57Z</time>
      </trkpt>
      <trkpt lat="50.31962" lon="5.18459">
        <ele>263.10639209851</ele>
        <time>2017-05-25T14:57:02Z</time>
      </trkpt>
      <trkpt lat="50.3198" lon="5.18427">
        <ele>264.56814930908</ele>
        <time>2017-05-25T14:57:06Z</time>
      </trkpt>
      <trkpt lat="50.31998" lon="5.18388">
        <ele>263.14711465262</ele>
        <time>2017-05-25T14:57:11Z</time>
      </trkpt>
      <trkpt lat="50.3202" lon="5.18345">
        <ele>260.22128247264</ele>
        <time>2017-05-25T14:57:16Z</time>
      </trkpt>
      <trkpt lat="50.32041" lon="5.18322">
        <ele>259.57236798887</ele>
        <time>2017-05-25T14:57:20Z</time>
      </trkpt>
      <trkpt lat="50.32083" lon="5.18297">
        <ele>261.0639453133</ele>
        <time>2017-05-25T14:57:25Z</time>
      </trkpt>
      <trkpt lat="50.32112" lon="5.18264">
        <ele>266.52078125875</ele>
        <time>2017-05-25T14:57:30Z</time>
      </trkpt>
      <trkpt lat="50.32128" lon="5.1824">
        <ele>267.2149310059</ele>
        <time>2017-05-25T14:57:34Z</time>
      </trkpt>
      <trkpt lat="50.32145" lon="5.1822">
        <ele>265.6101416221</ele>
        <time>2017-05-25T14:57:39Z</time>
      </trkpt>
      <trkpt lat="50.32166" lon="5.18203">
        <ele>267.94197917672</ele>
        <time>2017-05-25T14:57:43Z</time>
      </trkpt>
      <trkpt lat="50.32186" lon="5.18187">
        <ele>270.99807818137</ele>
        <time>2017-05-25T14:57:47Z</time>
      </trkpt>
      <trkpt lat="50.3221" lon="5.1817">
        <ele>269.3429562798</ele>
        <time>2017-05-25T14:57:52Z</time>
      </trkpt>
      <trkpt lat="50.32226" lon="5.18154">
        <ele>268.85327795611</ele>
        <time>2017-05-25T14:57:56Z</time>
      </trkpt>
      <trkpt lat="50.32241" lon="5.18142">
        <ele>267.81373762354</ele>
        <time>2017-05-25T14:58:00Z</time>
      </trkpt>
      <trkpt lat="50.3226" lon="5.18122">
        <ele>270.44688886257</ele>
        <time>2017-05-25T14:58:04Z</time>
      </trkpt>
      <trkpt lat="50.32278" lon="5.18089">
        <ele>270.16738664475</ele>
        <time>2017-05-25T14:58:08Z</time>
      </trkpt>
      <trkpt lat="50.323" lon="5.18035">
        <ele>268.42922211912</ele>
        <time>2017-05-25T14:58:13Z</time>
      </trkpt>
      <trkpt lat="50.32321" lon="5.17981">
        <ele>267.31629907109</ele>
        <time>2017-05-25T14:58:18Z</time>
      </trkpt>
      <trkpt lat="50.32336" lon="5.17945">
        <ele>267.65611874821</ele>
        <time>2017-05-25T14:58:22Z</time>
      </trkpt>
      <trkpt lat="50.32352" lon="5.17912">
        <ele>269.06309146191</ele>
        <time>2017-05-25T14:58:26Z</time>
      </trkpt>
      <trkpt lat="50.32369" lon="5.17871">
        <ele>267.83759385727</ele>
        <time>2017-05-25T14:58:31Z</time>
      </trkpt>
      <trkpt lat="50.32384" lon="5.17834">
        <ele>267.84192715319</ele>
        <time>2017-05-25T14:58:35Z</time>
      </trkpt>
      <trkpt lat="50.32403" lon="5.17784">
        <ele>268.518559767</ele>
        <time>2017-05-25T14:58:40Z</time>
      </trkpt>
      <trkpt lat="50.32419" lon="5.17744">
        <ele>266.51951741863</ele>
        <time>2017-05-25T14:58:44Z</time>
      </trkpt>
      <trkpt lat="50.32435" lon="5.17708">
        <ele>263.64818147826</ele>
        <time>2017-05-25T14:58:48Z</time>
      </trkpt>
      <trkpt lat="50.32449" lon="5.17674">
        <ele>262.74836786921</ele>
        <time>2017-05-25T14:58:52Z</time>
      </trkpt>
      <trkpt lat="50.32464" lon="5.17637">
        <ele>263.22723279459</ele>
        <time>2017-05-25T14:58:56Z</time>
      </trkpt>
      <trkpt lat="50.32486" lon="5.17596">
        <ele>264.2510112854</ele>
        <time>2017-05-25T14:59:01Z</time>
      </trkpt>
      <trkpt lat="50.32512" lon="5.17557">
        <ele>265.05802146745</ele>
        <time>2017-05-25T14:59:06Z</time>
      </trkpt>
      <trkpt lat="50.32531" lon="5.17536">
        <ele>265.48828428843</ele>
        <time>2017-05-25T14:59:10Z</time>
      </trkpt>
      <trkpt lat="50.32551" lon="5.17517">
        <ele>265.01023516385</ele>
        <time>2017-05-25T14:59:14Z</time>
      </trkpt>
      <trkpt lat="50.32574" lon="5.17498">
        <ele>264.55043325156</ele>
        <time>2017-05-25T14:59:18Z</time>
      </trkpt>
      <trkpt lat="50.32608" lon="5.17489">
        <ele>265.77066484579</ele>
        <time>2017-05-25T14:59:23Z</time>
      </trkpt>
      <trkpt lat="50.32636" lon="5.17486">
        <ele>266.70221068098</ele>
        <time>2017-05-25T14:59:27Z</time>
      </trkpt>
      <trkpt lat="50.32671" lon="5.17484">
        <ele>265.80317566414</ele>
        <time>2017-05-25T14:59:32Z</time>
      </trkpt>
      <trkpt lat="50.32702" lon="5.17483">
        <ele>263.80460628056</ele>
        <time>2017-05-25T14:59:37Z</time>
      </trkpt>
      <trkpt lat="50.32727" lon="5.17481">
        <ele>263.05507456468</ele>
        <time>2017-05-25T14:59:41Z</time>
      </trkpt>
      <trkpt lat="50.32756" lon="5.17482">
        <ele>259.30028817892</ele>
        <time>2017-05-25T14:59:45Z</time>
      </trkpt>
      <trkpt lat="50.32783" lon="5.17477">
        <ele>253.8939271383</ele>
        <time>2017-05-25T14:59:50Z</time>
      </trkpt>
      <trkpt lat="50.32807" lon="5.17474">
        <ele>247.7224627259</ele>
        <time>2017-05-25T14:59:54Z</time>
      </trkpt>
      <trkpt lat="50.32848" lon="5.17474">
        <ele>242.67026899862</ele>
        <time>2017-05-25T14:59:59Z</time>
      </trkpt>
      <trkpt lat="50.3288" lon="5.17469">
        <ele>249.55681781614</ele>
        <time>2017-05-25T15:00:04Z</time>
      </trkpt>
      <trkpt lat="50.32912" lon="5.1747">
        <ele>256.10832015081</ele>
        <time>2017-05-25T15:00:09Z</time>
      </trkpt>
      <trkpt lat="50.32939" lon="5.17473">
        <ele>257.47265617675</ele>
        <time>2017-05-25T15:00:13Z</time>
      </trkpt>
      <trkpt lat="50.32963" lon="5.17484">
        <ele>257.38846986271</ele>
        <time>2017-05-25T15:00:17Z</time>
      </trkpt>
      <trkpt lat="50.32989" lon="5.17516">
        <ele>257.85590543788</ele>
        <time>2017-05-25T15:00:22Z</time>
      </trkpt>
      <trkpt lat="50.33006" lon="5.17544">
        <ele>256.36237297932</ele>
        <time>2017-05-25T15:00:26Z</time>
      </trkpt>
      <trkpt lat="50.3303" lon="5.17573">
        <ele>253.14344317981</ele>
        <time>2017-05-25T15:00:31Z</time>
      </trkpt>
      <trkpt lat="50.33052" lon="5.17581">
        <ele>254.73337758559</ele>
        <time>2017-05-25T15:00:35Z</time>
      </trkpt>
      <trkpt lat="50.33082" lon="5.17585">
        <ele>260.64232145851</ele>
        <time>2017-05-25T15:00:40Z</time>
      </trkpt>
      <trkpt lat="50.33113" lon="5.17591">
        <ele>263.84982793344</ele>
        <time>2017-05-25T15:00:45Z</time>
      </trkpt>
      <trkpt lat="50.33138" lon="5.17595">
        <ele>264.59456272451</ele>
        <time>2017-05-25T15:00:49Z</time>
      </trkpt>
      <trkpt lat="50.33163" lon="5.17599">
        <ele>263.12115506838</ele>
        <time>2017-05-25T15:00:53Z</time>
      </trkpt>
      <trkpt lat="50.33196" lon="5.17606">
        <ele>261.83309582864</ele>
        <time>2017-05-25T15:00:58Z</time>
      </trkpt>
      <trkpt lat="50.33232" lon="5.17609">
        <ele>260.95979617281</ele>
        <time>2017-05-25T15:01:03Z</time>
      </trkpt>
      <trkpt lat="50.33261" lon="5.17591">
        <ele>258.96249680198</ele>
        <time>2017-05-25T15:01:07Z</time>
      </trkpt>
      <trkpt lat="50.33284" lon="5.17546">
        <ele>256.01817886444</ele>
        <time>2017-05-25T15:01:11Z</time>
      </trkpt>
      <trkpt lat="50.33299" lon="5.17499">
        <ele>254.85817305889</ele>
        <time>2017-05-25T15:01:16Z</time>
      </trkpt>
      <trkpt lat="50.33292" lon="5.17479">
        <ele>251.83642546447</ele>
        <time>2017-05-25T15:01:20Z</time>
      </trkpt>
      <trkpt lat="50.33279" lon="5.17457">
        <ele>250.52324399106</ele>
        <time>2017-05-25T15:01:24Z</time>
      </trkpt>
      <trkpt lat="50.33277" lon="5.17434">
        <ele>251.99592844577</ele>
        <time>2017-05-25T15:01:28Z</time>
      </trkpt>
      <trkpt lat="50.33295" lon="5.17411">
        <ele>254.36977995365</ele>
        <time>2017-05-25T15:01:33Z</time>
      </trkpt>
      <trkpt lat="50.33317" lon="5.17392">
        <ele>255.07373081592</ele>
        <time>2017-05-25T15:01:37Z</time>
      </trkpt>
      <trkpt lat="50.33345" lon="5.1735">
        <ele>255.99557655296</ele>
        <time>2017-05-25T15:01:42Z</time>
      </trkpt>
      <trkpt lat="50.33372" lon="5.17305">
        <ele>254.50255599743</ele>
        <time>2017-05-25T15:01:47Z</time>
      </trkpt>
      <trkpt lat="50.33394" lon="5.17271">
        <ele>256.21283018537</ele>
        <time>2017-05-25T15:01:52Z</time>
      </trkpt>
      <trkpt lat="50.33414" lon="5.17249">
        <ele>257.02033159164</ele>
        <time>2017-05-25T15:01:56Z</time>
      </trkpt>
      <trkpt lat="50.33429" lon="5.17228">
        <ele>254.6905853111</ele>
        <time>2017-05-25T15:02:00Z</time>
      </trkpt>
      <trkpt lat="50.33445" lon="5.17196">
        <ele>254.69464581494</ele>
        <time>2017-05-25T15:02:04Z</time>
      </trkpt>
      <trkpt lat="50.33462" lon="5.17159">
        <ele>257.85800490332</ele>
        <time>2017-05-25T15:02:08Z</time>
      </trkpt>
      <trkpt lat="50.33479" lon="5.17131">
        <ele>262.20210232292</ele>
        <time>2017-05-25T15:02:12Z</time>
      </trkpt>
      <trkpt lat="50.33505" lon="5.17109">
        <ele>265.37592135112</ele>
        <time>2017-05-25T15:02:17Z</time>
      </trkpt>
      <trkpt lat="50.33542" lon="5.17086">
        <ele>259.52401317494</ele>
        <time>2017-05-25T15:02:22Z</time>
      </trkpt>
      <trkpt lat="50.33572" lon="5.1707">
        <ele>254.84221693803</ele>
        <time>2017-05-25T15:02:26Z</time>
      </trkpt>
      <trkpt lat="50.33596" lon="5.1706">
        <ele>253.57006567566</ele>
        <time>2017-05-25T15:02:30Z</time>
      </trkpt>
      <trkpt lat="50.33625" lon="5.17042">
        <ele>254.71087139071</ele>
        <time>2017-05-25T15:02:35Z</time>
      </trkpt>
      <trkpt lat="50.33648" lon="5.17029">
        <ele>255.14855436173</ele>
        <time>2017-05-25T15:02:39Z</time>
      </trkpt>
      <trkpt lat="50.33671" lon="5.17009">
        <ele>260.02027936925</ele>
        <time>2017-05-25T15:02:44Z</time>
      </trkpt>
      <trkpt lat="50.33692" lon="5.16985">
        <ele>260.53857981268</ele>
        <time>2017-05-25T15:02:48Z</time>
      </trkpt>
      <trkpt lat="50.33718" lon="5.16955">
        <ele>260.34820717235</ele>
        <time>2017-05-25T15:02:53Z</time>
      </trkpt>
      <trkpt lat="50.33748" lon="5.16923">
        <ele>258.3641160648</ele>
        <time>2017-05-25T15:02:58Z</time>
      </trkpt>
      <trkpt lat="50.33769" lon="5.16899">
        <ele>256.94885294455</ele>
        <time>2017-05-25T15:03:02Z</time>
      </trkpt>
      <trkpt lat="50.3379" lon="5.16876">
        <ele>257.20708412811</ele>
        <time>2017-05-25T15:03:06Z</time>
      </trkpt>
      <trkpt lat="50.33812" lon="5.16849">
        <ele>255.06069453359</ele>
        <time>2017-05-25T15:03:10Z</time>
      </trkpt>
      <trkpt lat="50.33836" lon="5.16817">
        <ele>253.73960472371</ele>
        <time>2017-05-25T15:03:15Z</time>
      </trkpt>
      <trkpt lat="50.33858" lon="5.16775">
        <ele>254.7445323312</ele>
        <time>2017-05-25T15:03:20Z</time>
      </trkpt>
      <trkpt lat="50.33875" lon="5.16742">
        <ele>254.23472724719</ele>
        <time>2017-05-25T15:03:24Z</time>
      </trkpt>
      <trkpt lat="50.33896" lon="5.16702">
        <ele>253.69840394065</ele>
        <time>2017-05-25T15:03:29Z</time>
      </trkpt>
      <trkpt lat="50.33913" lon="5.16672">
        <ele>254.04313420124</ele>
        <time>2017-05-25T15:03:33Z</time>
      </trkpt>
      <trkpt lat="50.33934" lon="5.16633">
        <ele>253.40101575194</ele>
        <time>2017-05-25T15:03:38Z</time>
      </trkpt>
      <trkpt lat="50.33953" lon="5.16593">
        <ele>252.1491825294</ele>
        <time>2017-05-25T15:03:43Z</time>
      </trkpt>
      <trkpt lat="50.33969" lon="5.16561">
        <ele>252.15356944986</ele>
        <time>2017-05-25T15:03:47Z</time>
      </trkpt>
      <trkpt lat="50.33984" lon="5.16532">
        <ele>254.50760929088</ele>
        <time>2017-05-25T15:03:51Z</time>
      </trkpt>
      <trkpt lat="50.33991" lon="5.16489">
        <ele>254.10185329569</ele>
        <time>2017-05-25T15:03:55Z</time>
      </trkpt>
      <trkpt lat="50.33999" lon="5.16447">
        <ele>250.35945570241</ele>
        <time>2017-05-25T15:03:59Z</time>
      </trkpt>
      <trkpt lat="50.34004" lon="5.16395">
        <ele>248.9815059535</ele>
        <time>2017-05-25T15:04:04Z</time>
      </trkpt>
      <trkpt lat="50.3401" lon="5.16356">
        <ele>250.55120455302</ele>
        <time>2017-05-25T15:04:08Z</time>
      </trkpt>
      <trkpt lat="50.3402" lon="5.16305">
        <ele>254.53109542266</ele>
        <time>2017-05-25T15:04:13Z</time>
      </trkpt>
      <trkpt lat="50.34027" lon="5.16267">
        <ele>254.47681982804</ele>
        <time>2017-05-25T15:04:17Z</time>
      </trkpt>
      <trkpt lat="50.34024" lon="5.16203">
        <ele>254.46699784504</ele>
        <time>2017-05-25T15:04:22Z</time>
      </trkpt>
      <trkpt lat="50.34019" lon="5.16161">
        <ele>250.91808168457</ele>
        <time>2017-05-25T15:04:26Z</time>
      </trkpt>
      <trkpt lat="50.34016" lon="5.16109">
        <ele>244.35440517751</ele>
        <time>2017-05-25T15:04:31Z</time>
      </trkpt>
      <trkpt lat="50.34013" lon="5.16055">
        <ele>239.38084367969</ele>
        <time>2017-05-25T15:04:36Z</time>
      </trkpt>
      <trkpt lat="50.34012" lon="5.16">
        <ele>239.63640130008</ele>
        <time>2017-05-25T15:04:41Z</time>
      </trkpt>
      <trkpt lat="50.34013" lon="5.15959">
        <ele>239.90918811575</ele>
        <time>2017-05-25T15:04:45Z</time>
      </trkpt>
      <trkpt lat="50.34013" lon="5.15925">
        <ele>241.78451877661</ele>
        <time>2017-05-25T15:04:49Z</time>
      </trkpt>
      <trkpt lat="50.34012" lon="5.15878">
        <ele>247.11788942228</ele>
        <time>2017-05-25T15:04:54Z</time>
      </trkpt>
      <trkpt lat="50.34015" lon="5.15837">
        <ele>250.42724940141</ele>
        <time>2017-05-25T15:04:58Z</time>
      </trkpt>
      <trkpt lat="50.34016" lon="5.15801">
        <ele>252.29228695756</ele>
        <time>2017-05-25T15:05:02Z</time>
      </trkpt>
      <trkpt lat="50.34018" lon="5.15759">
        <ele>249.53189006211</ele>
        <time>2017-05-25T15:05:07Z</time>
      </trkpt>
      <trkpt lat="50.34022" lon="5.15718">
        <ele>246.88856495772</ele>
        <time>2017-05-25T15:05:11Z</time>
      </trkpt>
      <trkpt lat="50.34023" lon="5.15664">
        <ele>241.69461914912</ele>
        <time>2017-05-25T15:05:16Z</time>
      </trkpt>
      <trkpt lat="50.34022" lon="5.1562">
        <ele>240.67957081773</ele>
        <time>2017-05-25T15:05:20Z</time>
      </trkpt>
      <trkpt lat="50.34027" lon="5.15599">
        <ele>239.98498216732</ele>
        <time>2017-05-25T15:05:25Z</time>
      </trkpt>
      <trkpt lat="50.34038" lon="5.15585">
        <ele>241.85995429849</ele>
        <time>2017-05-25T15:05:29Z</time>
      </trkpt>
      <trkpt lat="50.34019" lon="5.15557">
        <ele>246.24641387951</ele>
        <time>2017-05-25T15:05:34Z</time>
      </trkpt>
      <trkpt lat="50.33996" lon="5.15528">
        <ele>247.75032523531</ele>
        <time>2017-05-25T15:05:39Z</time>
      </trkpt>
      <trkpt lat="50.33975" lon="5.15502">
        <ele>248.81013286412</ele>
        <time>2017-05-25T15:05:43Z</time>
      </trkpt>
      <trkpt lat="50.33955" lon="5.15477">
        <ele>246.99253143323</ele>
        <time>2017-05-25T15:05:47Z</time>
      </trkpt>
      <trkpt lat="50.33943" lon="5.15449">
        <ele>245.47817371807</ele>
        <time>2017-05-25T15:05:51Z</time>
      </trkpt>
      <trkpt lat="50.33938" lon="5.1541">
        <ele>245.36414714526</ele>
        <time>2017-05-25T15:05:55Z</time>
      </trkpt>
      <trkpt lat="50.33933" lon="5.1537">
        <ele>247.57600024021</ele>
        <time>2017-05-25T15:05:59Z</time>
      </trkpt>
      <trkpt lat="50.3393" lon="5.15328">
        <ele>250.14301166134</ele>
        <time>2017-05-25T15:06:03Z</time>
      </trkpt>
      <trkpt lat="50.33924" lon="5.15277">
        <ele>251.50960043359</ele>
        <time>2017-05-25T15:06:08Z</time>
      </trkpt>
      <trkpt lat="50.33918" lon="5.15237">
        <ele>252.53427515093</ele>
        <time>2017-05-25T15:06:12Z</time>
      </trkpt>
      <trkpt lat="50.33911" lon="5.15189">
        <ele>249.56259845009</ele>
        <time>2017-05-25T15:06:17Z</time>
      </trkpt>
      <trkpt lat="50.33906" lon="5.15152">
        <ele>251.03319429377</ele>
        <time>2017-05-25T15:06:21Z</time>
      </trkpt>
      <trkpt lat="50.33902" lon="5.15106">
        <ele>252.36156826777</ele>
        <time>2017-05-25T15:06:26Z</time>
      </trkpt>
      <trkpt lat="50.33895" lon="5.15074">
        <ele>250.71944113789</ele>
        <time>2017-05-25T15:06:30Z</time>
      </trkpt>
      <trkpt lat="50.33873" lon="5.15035">
        <ele>249.23741425839</ele>
        <time>2017-05-25T15:06:35Z</time>
      </trkpt>
      <trkpt lat="50.33849" lon="5.15001">
        <ele>246.24617877929</ele>
        <time>2017-05-25T15:06:40Z</time>
      </trkpt>
      <trkpt lat="50.33844" lon="5.14995">
        <ele>246.56889421191</ele>
        <time>2017-05-25T15:06:41Z</time>
      </trkpt>
      <trkpt lat="50.33781" lon="5.14917">
        <ele>246.54287076809</ele>
        <time>2017-05-25T15:06:57Z</time>
      </trkpt>
      <trkpt lat="50.33764" lon="5.1489">
        <ele>248.42699335597</ele>
        <time>2017-05-25T15:07:01Z</time>
      </trkpt>
      <trkpt lat="50.33746" lon="5.14862">
        <ele>250.85265667353</ele>
        <time>2017-05-25T15:07:05Z</time>
      </trkpt>
      <trkpt lat="50.33724" lon="5.14831">
        <ele>250.4974976269</ele>
        <time>2017-05-25T15:07:09Z</time>
      </trkpt>
      <trkpt lat="50.33702" lon="5.14793">
        <ele>247.92627547502</ele>
        <time>2017-05-25T15:07:14Z</time>
      </trkpt>
      <trkpt lat="50.33688" lon="5.1476">
        <ele>244.08281497884</ele>
        <time>2017-05-25T15:07:18Z</time>
      </trkpt>
      <trkpt lat="50.33667" lon="5.14714">
        <ele>243.65602847292</ele>
        <time>2017-05-25T15:07:23Z</time>
      </trkpt>
      <trkpt lat="50.33656" lon="5.14677">
        <ele>246.62210715114</ele>
        <time>2017-05-25T15:07:27Z</time>
      </trkpt>
      <trkpt lat="50.33636" lon="5.14629">
        <ele>248.79719502103</ele>
        <time>2017-05-25T15:07:32Z</time>
      </trkpt>
      <trkpt lat="50.33623" lon="5.14589">
        <ele>248.44594005251</ele>
        <time>2017-05-25T15:07:36Z</time>
      </trkpt>
      <trkpt lat="50.33605" lon="5.14554">
        <ele>247.84422804347</ele>
        <time>2017-05-25T15:07:40Z</time>
      </trkpt>
      <trkpt lat="50.33578" lon="5.14509">
        <ele>243.10198107055</ele>
        <time>2017-05-25T15:07:45Z</time>
      </trkpt>
      <trkpt lat="50.33562" lon="5.14475">
        <ele>243.05909983218</ele>
        <time>2017-05-25T15:07:49Z</time>
      </trkpt>
      <trkpt lat="50.33545" lon="5.14441">
        <ele>245.53426853981</ele>
        <time>2017-05-25T15:07:53Z</time>
      </trkpt>
      <trkpt lat="50.33524" lon="5.14399">
        <ele>248.2980022351</ele>
        <time>2017-05-25T15:07:58Z</time>
      </trkpt>
      <trkpt lat="50.33503" lon="5.14366">
        <ele>250.45628751991</ele>
        <time>2017-05-25T15:08:02Z</time>
      </trkpt>
      <trkpt lat="50.33475" lon="5.1433">
        <ele>250.25694872979</ele>
        <time>2017-05-25T15:08:07Z</time>
      </trkpt>
      <trkpt lat="50.33452" lon="5.14296">
        <ele>250.94723909057</ele>
        <time>2017-05-25T15:08:12Z</time>
      </trkpt>
      <trkpt lat="50.33428" lon="5.14267">
        <ele>255.79215015519</ele>
        <time>2017-05-25T15:08:16Z</time>
      </trkpt>
      <trkpt lat="50.33407" lon="5.14235">
        <ele>257.96578751997</ele>
        <time>2017-05-25T15:08:20Z</time>
      </trkpt>
      <trkpt lat="50.3338" lon="5.14201">
        <ele>253.87645205785</ele>
        <time>2017-05-25T15:08:25Z</time>
      </trkpt>
      <trkpt lat="50.33357" lon="5.14172">
        <ele>250.95431102596</ele>
        <time>2017-05-25T15:08:30Z</time>
      </trkpt>
      <trkpt lat="50.3334" lon="5.14148">
        <ele>245.64196255587</ele>
        <time>2017-05-25T15:08:34Z</time>
      </trkpt>
      <trkpt lat="50.33319" lon="5.14118">
        <ele>241.20515165007</ele>
        <time>2017-05-25T15:08:38Z</time>
      </trkpt>
      <trkpt lat="50.33293" lon="5.14083">
        <ele>241.16655369099</ele>
        <time>2017-05-25T15:08:43Z</time>
      </trkpt>
      <trkpt lat="50.33272" lon="5.14055">
        <ele>242.69105823897</ele>
        <time>2017-05-25T15:08:47Z</time>
      </trkpt>
      <trkpt lat="50.33245" lon="5.14021">
        <ele>242.79092543795</ele>
        <time>2017-05-25T15:08:52Z</time>
      </trkpt>
      <trkpt lat="50.33223" lon="5.13996">
        <ele>240.62919373154</ele>
        <time>2017-05-25T15:08:56Z</time>
      </trkpt>
      <trkpt lat="50.33199" lon="5.13962">
        <ele>241.66604591353</ele>
        <time>2017-05-25T15:09:01Z</time>
      </trkpt>
      <trkpt lat="50.33179" lon="5.13932">
        <ele>244.96302633012</ele>
        <time>2017-05-25T15:09:05Z</time>
      </trkpt>
      <trkpt lat="50.33161" lon="5.13902">
        <ele>250.81252140139</ele>
        <time>2017-05-25T15:09:09Z</time>
      </trkpt>
      <trkpt lat="50.33134" lon="5.13858">
        <ele>249.05140702013</ele>
        <time>2017-05-25T15:09:14Z</time>
      </trkpt>
      <trkpt lat="50.33117" lon="5.13827">
        <ele>244.49539064936</ele>
        <time>2017-05-25T15:09:18Z</time>
      </trkpt>
      <trkpt lat="50.33101" lon="5.138">
        <ele>244.5468393753</ele>
        <time>2017-05-25T15:09:22Z</time>
      </trkpt>
      <trkpt lat="50.33079" lon="5.13763">
        <ele>247.38948571608</ele>
        <time>2017-05-25T15:09:27Z</time>
      </trkpt>
      <trkpt lat="50.33061" lon="5.1372">
        <ele>249.12576146314</ele>
        <time>2017-05-25T15:09:32Z</time>
      </trkpt>
      <trkpt lat="50.33051" lon="5.13683">
        <ele>250.29958178038</ele>
        <time>2017-05-25T15:09:36Z</time>
      </trkpt>
      <trkpt lat="50.33036" lon="5.1364">
        <ele>249.24144356684</ele>
        <time>2017-05-25T15:09:41Z</time>
      </trkpt>
      <trkpt lat="50.33027" lon="5.13607">
        <ele>250.39496959482</ele>
        <time>2017-05-25T15:09:45Z</time>
      </trkpt>
      <trkpt lat="50.33016" lon="5.13558">
        <ele>253.3653655395</ele>
        <time>2017-05-25T15:09:50Z</time>
      </trkpt>
      <trkpt lat="50.33009" lon="5.13519">
        <ele>257.14233744361</ele>
        <time>2017-05-25T15:09:54Z</time>
      </trkpt>
      <trkpt lat="50.33" lon="5.13474">
        <ele>256.52066847271</ele>
        <time>2017-05-25T15:09:59Z</time>
      </trkpt>
      <trkpt lat="50.32992" lon="5.13424">
        <ele>251.49594690706</ele>
        <time>2017-05-25T15:10:04Z</time>
      </trkpt>
      <trkpt lat="50.32978" lon="5.13376">
        <ele>245.38479580277</ele>
        <time>2017-05-25T15:10:09Z</time>
      </trkpt>
      <trkpt lat="50.32967" lon="5.13341">
        <ele>246.1904108201</ele>
        <time>2017-05-25T15:10:13Z</time>
      </trkpt>
      <trkpt lat="50.32954" lon="5.13307">
        <ele>248.86191400444</ele>
        <time>2017-05-25T15:10:17Z</time>
      </trkpt>
      <trkpt lat="50.32944" lon="5.13273">
        <ele>250.40097942666</ele>
        <time>2017-05-25T15:10:21Z</time>
      </trkpt>
      <trkpt lat="50.32926" lon="5.13229">
        <ele>253.47698693477</ele>
        <time>2017-05-25T15:10:26Z</time>
      </trkpt>
      <trkpt lat="50.32912" lon="5.13199">
        <ele>255.09865636216</ele>
        <time>2017-05-25T15:10:30Z</time>
      </trkpt>
      <trkpt lat="50.32895" lon="5.13166">
        <ele>254.15652068956</ele>
        <time>2017-05-25T15:10:34Z</time>
      </trkpt>
      <trkpt lat="50.32873" lon="5.13129">
        <ele>254.7884253321</ele>
        <time>2017-05-25T15:10:39Z</time>
      </trkpt>
      <trkpt lat="50.32845" lon="5.13092">
        <ele>252.70568670906</ele>
        <time>2017-05-25T15:10:44Z</time>
      </trkpt>
      <trkpt lat="50.3282" lon="5.13057">
        <ele>248.93314113676</ele>
        <time>2017-05-25T15:10:49Z</time>
      </trkpt>
      <trkpt lat="50.328" lon="5.13025">
        <ele>244.31571854856</ele>
        <time>2017-05-25T15:10:53Z</time>
      </trkpt>
      <trkpt lat="50.32785" lon="5.1299">
        <ele>240.20197388247</ele>
        <time>2017-05-25T15:10:57Z</time>
      </trkpt>
      <trkpt lat="50.32766" lon="5.12961">
        <ele>239.11746296304</ele>
        <time>2017-05-25T15:11:01Z</time>
      </trkpt>
      <trkpt lat="50.32745" lon="5.12932">
        <ele>244.54735105444</ele>
        <time>2017-05-25T15:11:05Z</time>
      </trkpt>
      <trkpt lat="50.32723" lon="5.12909">
        <ele>246.02860260131</ele>
        <time>2017-05-25T15:11:09Z</time>
      </trkpt>
      <trkpt lat="50.32706" lon="5.12883">
        <ele>243.98555573197</ele>
        <time>2017-05-25T15:11:13Z</time>
      </trkpt>
      <trkpt lat="50.32688" lon="5.12843">
        <ele>239.83662651788</ele>
        <time>2017-05-25T15:11:18Z</time>
      </trkpt>
      <trkpt lat="50.32675" lon="5.12818">
        <ele>237.49819822703</ele>
        <time>2017-05-25T15:11:22Z</time>
      </trkpt>
      <trkpt lat="50.32661" lon="5.12784">
        <ele>231.31270489333</ele>
        <time>2017-05-25T15:11:26Z</time>
      </trkpt>
      <trkpt lat="50.32645" lon="5.12754">
        <ele>231.19834863961</ele>
        <time>2017-05-25T15:11:30Z</time>
      </trkpt>
      <trkpt lat="50.32624" lon="5.12723">
        <ele>235.60206258593</ele>
        <time>2017-05-25T15:11:35Z</time>
      </trkpt>
      <trkpt lat="50.32601" lon="5.12693">
        <ele>234.41966699675</ele>
        <time>2017-05-25T15:11:40Z</time>
      </trkpt>
      <trkpt lat="50.32582" lon="5.12661">
        <ele>231.74183054241</ele>
        <time>2017-05-25T15:11:44Z</time>
      </trkpt>
      <trkpt lat="50.32566" lon="5.1263">
        <ele>231.6848318176</ele>
        <time>2017-05-25T15:11:48Z</time>
      </trkpt>
      <trkpt lat="50.32541" lon="5.12591">
        <ele>231.25013873712</ele>
        <time>2017-05-25T15:11:53Z</time>
      </trkpt>
      <trkpt lat="50.32528" lon="5.12568">
        <ele>230.66878514841</ele>
        <time>2017-05-25T15:11:57Z</time>
      </trkpt>
      <trkpt lat="50.32511" lon="5.1253">
        <ele>232.6399504298</ele>
        <time>2017-05-25T15:12:02Z</time>
      </trkpt>
      <trkpt lat="50.32495" lon="5.125">
        <ele>232.51483185062</ele>
        <time>2017-05-25T15:12:06Z</time>
      </trkpt>
      <trkpt lat="50.32475" lon="5.12463">
        <ele>233.31578540102</ele>
        <time>2017-05-25T15:12:10Z</time>
      </trkpt>
      <trkpt lat="50.32459" lon="5.12434">
        <ele>233.85257284664</ele>
        <time>2017-05-25T15:12:14Z</time>
      </trkpt>
      <trkpt lat="50.3244" lon="5.12416">
        <ele>232.71457529759</ele>
        <time>2017-05-25T15:12:18Z</time>
      </trkpt>
      <trkpt lat="50.32427" lon="5.12391">
        <ele>233.330738089</ele>
        <time>2017-05-25T15:12:22Z</time>
      </trkpt>
      <trkpt lat="50.32405" lon="5.12355">
        <ele>234.01012950288</ele>
        <time>2017-05-25T15:12:27Z</time>
      </trkpt>
      <trkpt lat="50.32386" lon="5.12323">
        <ele>237.57562063043</ele>
        <time>2017-05-25T15:12:31Z</time>
      </trkpt>
      <trkpt lat="50.32367" lon="5.12278">
        <ele>245.41858964292</ele>
        <time>2017-05-25T15:12:36Z</time>
      </trkpt>
      <trkpt lat="50.32355" lon="5.12244">
        <ele>245.74459024531</ele>
        <time>2017-05-25T15:12:40Z</time>
      </trkpt>
      <trkpt lat="50.32339" lon="5.12199">
        <ele>242.87221464843</ele>
        <time>2017-05-25T15:12:45Z</time>
      </trkpt>
      <trkpt lat="50.32327" lon="5.12162">
        <ele>239.81845075735</ele>
        <time>2017-05-25T15:12:49Z</time>
      </trkpt>
      <trkpt lat="50.3231" lon="5.12116">
        <ele>239.63411172474</ele>
        <time>2017-05-25T15:12:54Z</time>
      </trkpt>
      <trkpt lat="50.32296" lon="5.12083">
        <ele>239.83899445723</ele>
        <time>2017-05-25T15:12:58Z</time>
      </trkpt>
      <trkpt lat="50.32282" lon="5.12047">
        <ele>237.96491324308</ele>
        <time>2017-05-25T15:13:02Z</time>
      </trkpt>
      <trkpt lat="50.32267" lon="5.12014">
        <ele>236.23764498942</ele>
        <time>2017-05-25T15:13:06Z</time>
      </trkpt>
      <trkpt lat="50.32254" lon="5.11981">
        <ele>236.58578349644</ele>
        <time>2017-05-25T15:13:11Z</time>
      </trkpt>
      <trkpt lat="50.32251" lon="5.11973">
        <ele>236.58580929767</ele>
        <time>2017-05-25T15:13:12Z</time>
      </trkpt>
      <trkpt lat="50.32221" lon="5.11848">
        <ele>237.48882353129</ele>
        <time>2017-05-25T15:13:21Z</time>
      </trkpt>
      <trkpt lat="50.32214" lon="5.1183">
        <ele>234.80519190372</ele>
        <time>2017-05-25T15:13:26Z</time>
      </trkpt>
      <trkpt lat="50.32204" lon="5.11796">
        <ele>238.00644694397</ele>
        <time>2017-05-25T15:13:30Z</time>
      </trkpt>
      <trkpt lat="50.32192" lon="5.11767">
        <ele>239.5336749695</ele>
        <time>2017-05-25T15:13:35Z</time>
      </trkpt>
      <trkpt lat="50.32183" lon="5.1174">
        <ele>237.72121720724</ele>
        <time>2017-05-25T15:13:40Z</time>
      </trkpt>
      <trkpt lat="50.32175" lon="5.11708">
        <ele>235.06853821586</ele>
        <time>2017-05-25T15:13:44Z</time>
      </trkpt>
      <trkpt lat="50.32165" lon="5.11676">
        <ele>236.17298269727</ele>
        <time>2017-05-25T15:13:49Z</time>
      </trkpt>
      <trkpt lat="50.32156" lon="5.11639">
        <ele>238.00237744962</ele>
        <time>2017-05-25T15:13:54Z</time>
      </trkpt>
      <trkpt lat="50.32148" lon="5.11606">
        <ele>243.52385812203</ele>
        <time>2017-05-25T15:13:58Z</time>
      </trkpt>
      <trkpt lat="50.32133" lon="5.11564">
        <ele>246.29535788591</ele>
        <time>2017-05-25T15:14:03Z</time>
      </trkpt>
      <trkpt lat="50.32114" lon="5.11527">
        <ele>247.45630140176</ele>
        <time>2017-05-25T15:14:07Z</time>
      </trkpt>
      <trkpt lat="50.32097" lon="5.11484">
        <ele>247.0924212549</ele>
        <time>2017-05-25T15:14:12Z</time>
      </trkpt>
      <trkpt lat="50.32084" lon="5.11452">
        <ele>247.4803426995</ele>
        <time>2017-05-25T15:14:16Z</time>
      </trkpt>
      <trkpt lat="50.32067" lon="5.11408">
        <ele>248.13192438922</ele>
        <time>2017-05-25T15:14:21Z</time>
      </trkpt>
      <trkpt lat="50.32056" lon="5.11371">
        <ele>249.70305141986</ele>
        <time>2017-05-25T15:14:25Z</time>
      </trkpt>
      <trkpt lat="50.32043" lon="5.11333">
        <ele>254.62679575074</ele>
        <time>2017-05-25T15:14:30Z</time>
      </trkpt>
      <trkpt lat="50.32035" lon="5.11304">
        <ele>256.23661423865</ele>
        <time>2017-05-25T15:14:34Z</time>
      </trkpt>
      <trkpt lat="50.32026" lon="5.11267">
        <ele>263.50400670706</ele>
        <time>2017-05-25T15:14:38Z</time>
      </trkpt>
      <trkpt lat="50.32014" lon="5.11221">
        <ele>262.05348209067</ele>
        <time>2017-05-25T15:14:43Z</time>
      </trkpt>
      <trkpt lat="50.31996" lon="5.11179">
        <ele>256.93104766686</ele>
        <time>2017-05-25T15:14:48Z</time>
      </trkpt>
      <trkpt lat="50.31982" lon="5.1114">
        <ele>252.34383103197</ele>
        <time>2017-05-25T15:14:52Z</time>
      </trkpt>
      <trkpt lat="50.31966" lon="5.11109">
        <ele>250.34423377126</ele>
        <time>2017-05-25T15:14:56Z</time>
      </trkpt>
      <trkpt lat="50.3195" lon="5.11069">
        <ele>251.48779520464</ele>
        <time>2017-05-25T15:15:01Z</time>
      </trkpt>
      <trkpt lat="50.31932" lon="5.11023">
        <ele>248.80946597948</ele>
        <time>2017-05-25T15:15:06Z</time>
      </trkpt>
      <trkpt lat="50.31916" lon="5.10979">
        <ele>246.08862307886</ele>
        <time>2017-05-25T15:15:11Z</time>
      </trkpt>
      <trkpt lat="50.31905" lon="5.10945">
        <ele>249.61030972641</ele>
        <time>2017-05-25T15:15:15Z</time>
      </trkpt>
      <trkpt lat="50.31891" lon="5.10907">
        <ele>253.32663446164</ele>
        <time>2017-05-25T15:15:19Z</time>
      </trkpt>
      <trkpt lat="50.31878" lon="5.10872">
        <ele>255.71002708257</ele>
        <time>2017-05-25T15:15:23Z</time>
      </trkpt>
      <trkpt lat="50.31859" lon="5.10826">
        <ele>256.20264989528</ele>
        <time>2017-05-25T15:15:28Z</time>
      </trkpt>
      <trkpt lat="50.31842" lon="5.10792">
        <ele>256.16331522223</ele>
        <time>2017-05-25T15:15:32Z</time>
      </trkpt>
      <trkpt lat="50.3182" lon="5.1075">
        <ele>254.57860975165</ele>
        <time>2017-05-25T15:15:37Z</time>
      </trkpt>
      <trkpt lat="50.31801" lon="5.10721">
        <ele>253.43513937243</ele>
        <time>2017-05-25T15:15:41Z</time>
      </trkpt>
      <trkpt lat="50.31777" lon="5.10694">
        <ele>250.14971375297</ele>
        <time>2017-05-25T15:15:45Z</time>
      </trkpt>
      <trkpt lat="50.31753" lon="5.10669">
        <ele>246.41379445756</ele>
        <time>2017-05-25T15:15:49Z</time>
      </trkpt>
      <trkpt lat="50.31726" lon="5.10641">
        <ele>245.20351961143</ele>
        <time>2017-05-25T15:15:54Z</time>
      </trkpt>
      <trkpt lat="50.31707" lon="5.10617">
        <ele>243.46611106428</ele>
        <time>2017-05-25T15:15:58Z</time>
      </trkpt>
      <trkpt lat="50.31692" lon="5.10595">
        <ele>242.92446335391</ele>
        <time>2017-05-25T15:16:02Z</time>
      </trkpt>
      <trkpt lat="50.31674" lon="5.10573">
        <ele>245.55068268002</ele>
        <time>2017-05-25T15:16:06Z</time>
      </trkpt>
      <trkpt lat="50.31659" lon="5.10554">
        <ele>241.63544709633</ele>
        <time>2017-05-25T15:16:10Z</time>
      </trkpt>
      <trkpt lat="50.31639" lon="5.10526">
        <ele>242.00912734703</ele>
        <time>2017-05-25T15:16:15Z</time>
      </trkpt>
      <trkpt lat="50.31618" lon="5.10501">
        <ele>244.6456092102</ele>
        <time>2017-05-25T15:16:19Z</time>
      </trkpt>
      <trkpt lat="50.31593" lon="5.10468">
        <ele>241.75465398425</ele>
        <time>2017-05-25T15:16:24Z</time>
      </trkpt>
      <trkpt lat="50.31568" lon="5.10439">
        <ele>240.84152447922</ele>
        <time>2017-05-25T15:16:28Z</time>
      </trkpt>
      <trkpt lat="50.31537" lon="5.10402">
        <ele>239.2786418792</ele>
        <time>2017-05-25T15:16:33Z</time>
      </trkpt>
      <trkpt lat="50.31509" lon="5.1037">
        <ele>235.08822931433</ele>
        <time>2017-05-25T15:16:38Z</time>
      </trkpt>
      <trkpt lat="50.31489" lon="5.10343">
        <ele>232.57704275173</ele>
        <time>2017-05-25T15:16:42Z</time>
      </trkpt>
      <trkpt lat="50.31466" lon="5.10313">
        <ele>234.96348206593</ele>
        <time>2017-05-25T15:16:46Z</time>
      </trkpt>
      <trkpt lat="50.31443" lon="5.10287">
        <ele>238.46907953402</ele>
        <time>2017-05-25T15:16:50Z</time>
      </trkpt>
      <trkpt lat="50.3142" lon="5.10257">
        <ele>242.98274795043</ele>
        <time>2017-05-25T15:16:55Z</time>
      </trkpt>
      <trkpt lat="50.31403" lon="5.10234">
        <ele>244.08539092248</ele>
        <time>2017-05-25T15:16:59Z</time>
      </trkpt>
      <trkpt lat="50.31386" lon="5.10208">
        <ele>244.87852743473</ele>
        <time>2017-05-25T15:17:03Z</time>
      </trkpt>
      <trkpt lat="50.31364" lon="5.1017">
        <ele>246.12283763131</ele>
        <time>2017-05-25T15:17:08Z</time>
      </trkpt>
      <trkpt lat="50.31347" lon="5.10134">
        <ele>246.82873467225</ele>
        <time>2017-05-25T15:17:12Z</time>
      </trkpt>
      <trkpt lat="50.31331" lon="5.10098">
        <ele>247.15192609974</ele>
        <time>2017-05-25T15:17:16Z</time>
      </trkpt>
      <trkpt lat="50.31314" lon="5.10052">
        <ele>243.35908694414</ele>
        <time>2017-05-25T15:17:21Z</time>
      </trkpt>
      <trkpt lat="50.31302" lon="5.1001">
        <ele>242.43529133685</ele>
        <time>2017-05-25T15:17:26Z</time>
      </trkpt>
      <trkpt lat="50.31291" lon="5.09977">
        <ele>243.91339774514</ele>
        <time>2017-05-25T15:17:30Z</time>
      </trkpt>
      <trkpt lat="50.31281" lon="5.09942">
        <ele>246.03169992243</ele>
        <time>2017-05-25T15:17:34Z</time>
      </trkpt>
      <trkpt lat="50.31269" lon="5.09911">
        <ele>247.43751700023</ele>
        <time>2017-05-25T15:17:38Z</time>
      </trkpt>
      <trkpt lat="50.31255" lon="5.09885">
        <ele>246.72835606754</ele>
        <time>2017-05-25T15:17:42Z</time>
      </trkpt>
      <trkpt lat="50.31251" lon="5.09875">
        <ele>245.72169438683</ele>
        <time>2017-05-25T15:17:52Z</time>
      </trkpt>
      <trkpt lat="50.31246" lon="5.09871">
        <ele>245.37359581394</ele>
        <time>2017-05-25T15:17:57Z</time>
      </trkpt>
      <trkpt lat="50.31231" lon="5.09829">
        <ele>249.90701210412</ele>
        <time>2017-05-25T15:18:02Z</time>
      </trkpt>
      <trkpt lat="50.31225" lon="5.09793">
        <ele>251.64196627119</ele>
        <time>2017-05-25T15:18:06Z</time>
      </trkpt>
      <trkpt lat="50.31214" lon="5.09755">
        <ele>253.8270495345</ele>
        <time>2017-05-25T15:18:10Z</time>
      </trkpt>
      <trkpt lat="50.31202" lon="5.09718">
        <ele>254.96515062565</ele>
        <time>2017-05-25T15:18:14Z</time>
      </trkpt>
      <trkpt lat="50.31184" lon="5.09679">
        <ele>247.8981906139</ele>
        <time>2017-05-25T15:18:19Z</time>
      </trkpt>
      <trkpt lat="50.31163" lon="5.09642">
        <ele>243.96568631008</ele>
        <time>2017-05-25T15:18:24Z</time>
      </trkpt>
      <trkpt lat="50.31146" lon="5.09614">
        <ele>241.97081955241</ele>
        <time>2017-05-25T15:18:28Z</time>
      </trkpt>
      <trkpt lat="50.31123" lon="5.09577">
        <ele>243.28147549292</ele>
        <time>2017-05-25T15:18:33Z</time>
      </trkpt>
      <trkpt lat="50.31106" lon="5.09553">
        <ele>247.69586941216</ele>
        <time>2017-05-25T15:18:37Z</time>
      </trkpt>
      <trkpt lat="50.31085" lon="5.09531">
        <ele>252.34026540491</ele>
        <time>2017-05-25T15:18:42Z</time>
      </trkpt>
      <trkpt lat="50.3107" lon="5.09511">
        <ele>255.11429331016</ele>
        <time>2017-05-25T15:18:46Z</time>
      </trkpt>
      <trkpt lat="50.31049" lon="5.09488">
        <ele>254.09365728681</ele>
        <time>2017-05-25T15:18:50Z</time>
      </trkpt>
      <trkpt lat="50.31014" lon="5.0946">
        <ele>252.74517127412</ele>
        <time>2017-05-25T15:18:55Z</time>
      </trkpt>
      <trkpt lat="50.30983" lon="5.09441">
        <ele>250.05725399412</ele>
        <time>2017-05-25T15:18:59Z</time>
      </trkpt>
      <trkpt lat="50.30953" lon="5.09427">
        <ele>245.09684405051</ele>
        <time>2017-05-25T15:19:03Z</time>
      </trkpt>
      <trkpt lat="50.30924" lon="5.09418">
        <ele>242.34343196223</ele>
        <time>2017-05-25T15:19:08Z</time>
      </trkpt>
      <trkpt lat="50.30892" lon="5.09412">
        <ele>239.78977534262</ele>
        <time>2017-05-25T15:19:13Z</time>
      </trkpt>
      <trkpt lat="50.30867" lon="5.09407">
        <ele>241.62052743186</ele>
        <time>2017-05-25T15:19:17Z</time>
      </trkpt>
      <trkpt lat="50.3084" lon="5.09406">
        <ele>243.45719378923</ele>
        <time>2017-05-25T15:19:21Z</time>
      </trkpt>
      <trkpt lat="50.30815" lon="5.09406">
        <ele>245.39752436811</ele>
        <time>2017-05-25T15:19:25Z</time>
      </trkpt>
      <trkpt lat="50.3079" lon="5.09408">
        <ele>246.52849118334</ele>
        <time>2017-05-25T15:19:29Z</time>
      </trkpt>
      <trkpt lat="50.30766" lon="5.09411">
        <ele>247.82081579582</ele>
        <time>2017-05-25T15:19:33Z</time>
      </trkpt>
      <trkpt lat="50.30749" lon="5.09414">
        <ele>247.72027951624</ele>
        <time>2017-05-25T15:19:37Z</time>
      </trkpt>
      <trkpt lat="50.30727" lon="5.09422">
        <ele>246.96620646367</ele>
        <time>2017-05-25T15:19:42Z</time>
      </trkpt>
      <trkpt lat="50.30706" lon="5.0943">
        <ele>245.4793273261</ele>
        <time>2017-05-25T15:19:46Z</time>
      </trkpt>
      <trkpt lat="50.30684" lon="5.0944">
        <ele>243.03737234209</ele>
        <time>2017-05-25T15:19:50Z</time>
      </trkpt>
      <trkpt lat="50.30657" lon="5.09459">
        <ele>241.89846458445</ele>
        <time>2017-05-25T15:19:55Z</time>
      </trkpt>
      <trkpt lat="50.30633" lon="5.09474">
        <ele>244.57686365642</ele>
        <time>2017-05-25T15:19:59Z</time>
      </trkpt>
      <trkpt lat="50.30608" lon="5.09492">
        <ele>248.59439355375</ele>
        <time>2017-05-25T15:20:03Z</time>
      </trkpt>
      <trkpt lat="50.30573" lon="5.0952">
        <ele>253.04351145296</ele>
        <time>2017-05-25T15:20:08Z</time>
      </trkpt>
      <trkpt lat="50.30546" lon="5.09537">
        <ele>254.15787386813</ele>
        <time>2017-05-25T15:20:12Z</time>
      </trkpt>
      <trkpt lat="50.30516" lon="5.09561">
        <ele>255.18401839936</ele>
        <time>2017-05-25T15:20:17Z</time>
      </trkpt>
      <trkpt lat="50.30486" lon="5.09585">
        <ele>248.40285620257</ele>
        <time>2017-05-25T15:20:22Z</time>
      </trkpt>
      <trkpt lat="50.30457" lon="5.09604">
        <ele>249.2711222487</ele>
        <time>2017-05-25T15:20:26Z</time>
      </trkpt>
      <trkpt lat="50.30428" lon="5.09626">
        <ele>247.25900840218</ele>
        <time>2017-05-25T15:20:31Z</time>
      </trkpt>
      <trkpt lat="50.30409" lon="5.09637">
        <ele>241.28009795597</ele>
        <time>2017-05-25T15:20:35Z</time>
      </trkpt>
      <trkpt lat="50.30382" lon="5.0965">
        <ele>239.98996880053</ele>
        <time>2017-05-25T15:20:39Z</time>
      </trkpt>
      <trkpt lat="50.30359" lon="5.09666">
        <ele>242.39564697044</ele>
        <time>2017-05-25T15:20:43Z</time>
      </trkpt>
      <trkpt lat="50.30329" lon="5.09676">
        <ele>239.38432974159</ele>
        <time>2017-05-25T15:20:48Z</time>
      </trkpt>
      <trkpt lat="50.30311" lon="5.09678">
        <ele>238.8867573408</ele>
        <time>2017-05-25T15:20:52Z</time>
      </trkpt>
      <trkpt lat="50.30291" lon="5.09678">
        <ele>239.40477729517</ele>
        <time>2017-05-25T15:20:56Z</time>
      </trkpt>
      <trkpt lat="50.30278" lon="5.09677">
        <ele>239.74979443005</ele>
        <time>2017-05-25T15:21:01Z</time>
      </trkpt>
      <trkpt lat="50.30269" lon="5.09696">
        <ele>238.52652000058</ele>
        <time>2017-05-25T15:21:05Z</time>
      </trkpt>
      <trkpt lat="50.3026" lon="5.09736">
        <ele>236.17469040543</ele>
        <time>2017-05-25T15:21:09Z</time>
      </trkpt>
      <trkpt lat="50.30249" lon="5.09778">
        <ele>236.73033167844</ele>
        <time>2017-05-25T15:21:13Z</time>
      </trkpt>
      <trkpt lat="50.30238" lon="5.09816">
        <ele>238.49810328692</ele>
        <time>2017-05-25T15:21:17Z</time>
      </trkpt>
      <trkpt lat="50.30222" lon="5.09863">
        <ele>239.11029002184</ele>
        <time>2017-05-25T15:21:22Z</time>
      </trkpt>
      <trkpt lat="50.30216" lon="5.0989">
        <ele>237.67673755693</ele>
        <time>2017-05-25T15:21:26Z</time>
      </trkpt>
      <trkpt lat="50.30193" lon="5.09898">
        <ele>236.97516279279</ele>
        <time>2017-05-25T15:21:31Z</time>
      </trkpt>
      <trkpt lat="50.30172" lon="5.09882">
        <ele>235.90955991111</ele>
        <time>2017-05-25T15:21:36Z</time>
      </trkpt>
      <trkpt lat="50.30159" lon="5.09873">
        <ele>237.91243577945</ele>
        <time>2017-05-25T15:21:40Z</time>
      </trkpt>
      <trkpt lat="50.30148" lon="5.09863">
        <ele>239.35970736747</ele>
        <time>2017-05-25T15:21:44Z</time>
      </trkpt>
      <trkpt lat="50.30136" lon="5.09853">
        <ele>239.79484944698</ele>
        <time>2017-05-25T15:21:48Z</time>
      </trkpt>
      <trkpt lat="50.30121" lon="5.09841">
        <ele>241.34706494655</ele>
        <time>2017-05-25T15:21:52Z</time>
      </trkpt>
      <trkpt lat="50.30107" lon="5.0983">
        <ele>242.11124172539</ele>
        <time>2017-05-25T15:21:56Z</time>
      </trkpt>
      <trkpt lat="50.30093" lon="5.09822">
        <ele>245.09673674137</ele>
        <time>2017-05-25T15:22:00Z</time>
      </trkpt>
      <trkpt lat="50.30084" lon="5.09811">
        <ele>245.78195727463</ele>
        <time>2017-05-25T15:22:04Z</time>
      </trkpt>
      <trkpt lat="50.30081" lon="5.09809">
        <ele>245.95887665521</ele>
        <time>2017-05-25T15:22:08Z</time>
      </trkpt>
      <trkpt lat="50.30063" lon="5.09791">
        <ele>246.8710302326</ele>
        <time>2017-05-25T15:22:13Z</time>
      </trkpt>
      <trkpt lat="50.30051" lon="5.09781">
        <ele>247.80389228876</ele>
        <time>2017-05-25T15:22:17Z</time>
      </trkpt>
      <trkpt lat="50.30035" lon="5.09774">
        <ele>248.7441524163</ele>
        <time>2017-05-25T15:22:22Z</time>
      </trkpt>
      <trkpt lat="50.30025" lon="5.09767">
        <ele>249.31799742193</ele>
        <time>2017-05-25T15:22:26Z</time>
      </trkpt>
      <trkpt lat="50.30017" lon="5.09766">
        <ele>249.73513307473</ele>
        <time>2017-05-25T15:22:30Z</time>
      </trkpt>
      <trkpt lat="50.30008" lon="5.09763">
        <ele>250.41722739578</ele>
        <time>2017-05-25T15:22:37Z</time>
      </trkpt>
      <trkpt lat="50.30002" lon="5.09763">
        <ele>250.81780783542</ele>
        <time>2017-05-25T15:22:43Z</time>
      </trkpt>
      <trkpt lat="50.29989" lon="5.09758">
        <ele>251.27516829236</ele>
        <time>2017-05-25T15:22:47Z</time>
      </trkpt>
      <trkpt lat="50.29982" lon="5.09753">
        <ele>252.200528177</ele>
        <time>2017-05-25T15:22:52Z</time>
      </trkpt>
      <trkpt lat="50.29973" lon="5.09754">
        <ele>252.91366503611</ele>
        <time>2017-05-25T15:23:05Z</time>
      </trkpt>
      <trkpt lat="50.29968" lon="5.09746">
        <ele>255.74280725104</ele>
        <time>2017-05-25T15:24:11Z</time>
      </trkpt>
      <trkpt lat="50.29973" lon="5.0976">
        <ele>255.97380746853</ele>
        <time>2017-05-25T15:24:15Z</time>
      </trkpt>
      <trkpt lat="50.29972" lon="5.09768">
        <ele>257.18265978534</ele>
        <time>2017-05-25T15:26:22Z</time>
      </trkpt>
      <trkpt lat="50.29957" lon="5.09777">
        <ele>257.31742132968</ele>
        <time>2017-05-25T15:26:26Z</time>
      </trkpt>
      <trkpt lat="50.29941" lon="5.09802">
        <ele>260.25089245838</ele>
        <time>2017-05-25T15:26:31Z</time>
      </trkpt>
      <trkpt lat="50.29921" lon="5.09834">
        <ele>259.75966822889</ele>
        <time>2017-05-25T15:26:36Z</time>
      </trkpt>
      <trkpt lat="50.29899" lon="5.09866">
        <ele>258.74216544233</ele>
        <time>2017-05-25T15:26:41Z</time>
      </trkpt>
      <trkpt lat="50.29883" lon="5.09884">
        <ele>260.68380334434</ele>
        <time>2017-05-25T15:26:45Z</time>
      </trkpt>
      <trkpt lat="50.29865" lon="5.0991">
        <ele>264.10791394565</ele>
        <time>2017-05-25T15:26:50Z</time>
      </trkpt>
      <trkpt lat="50.29847" lon="5.09927">
        <ele>264.85979736101</ele>
        <time>2017-05-25T15:26:54Z</time>
      </trkpt>
      <trkpt lat="50.29817" lon="5.09949">
        <ele>264.24920796292</ele>
        <time>2017-05-25T15:26:59Z</time>
      </trkpt>
      <trkpt lat="50.2979" lon="5.09968">
        <ele>262.11185473712</ele>
        <time>2017-05-25T15:27:04Z</time>
      </trkpt>
      <trkpt lat="50.29767" lon="5.09987">
        <ele>261.0110293148</ele>
        <time>2017-05-25T15:27:08Z</time>
      </trkpt>
      <trkpt lat="50.29753" lon="5.10009">
        <ele>259.70412392168</ele>
        <time>2017-05-25T15:27:12Z</time>
      </trkpt>
      <trkpt lat="50.29762" lon="5.10034">
        <ele>260.47313259229</ele>
        <time>2017-05-25T15:27:16Z</time>
      </trkpt>
      <trkpt lat="50.29781" lon="5.10063">
        <ele>262.41101805447</ele>
        <time>2017-05-25T15:27:20Z</time>
      </trkpt>
      <trkpt lat="50.29801" lon="5.10097">
        <ele>261.21667941326</ele>
        <time>2017-05-25T15:27:25Z</time>
      </trkpt>
      <trkpt lat="50.29801" lon="5.10115">
        <ele>260.23574109761</ele>
        <time>2017-05-25T15:27:29Z</time>
      </trkpt>
      <trkpt lat="50.29785" lon="5.10112">
        <ele>260.67603540313</ele>
        <time>2017-05-25T15:27:33Z</time>
      </trkpt>
      <trkpt lat="50.29777" lon="5.10123">
        <ele>257.40830546172</ele>
        <time>2017-05-25T15:27:38Z</time>
      </trkpt>
      <trkpt lat="50.2976" lon="5.10137">
        <ele>266.65238525962</ele>
        <time>2017-05-25T15:27:42Z</time>
      </trkpt>
      <trkpt lat="50.29734" lon="5.1016">
        <ele>275.12690122805</ele>
        <time>2017-05-25T15:27:46Z</time>
      </trkpt>
      <trkpt lat="50.2971" lon="5.10182">
        <ele>278.74973188166</ele>
        <time>2017-05-25T15:27:51Z</time>
      </trkpt>
      <trkpt lat="50.29686" lon="5.10205">
        <ele>277.81150765203</ele>
        <time>2017-05-25T15:27:55Z</time>
      </trkpt>
      <trkpt lat="50.29672" lon="5.10187">
        <ele>280.76205961537</ele>
        <time>2017-05-25T15:27:59Z</time>
      </trkpt>
      <trkpt lat="50.29664" lon="5.10159">
        <ele>280.8666061509</ele>
        <time>2017-05-25T15:28:03Z</time>
      </trkpt>
      <trkpt lat="50.29647" lon="5.10125">
        <ele>279.55381477179</ele>
        <time>2017-05-25T15:28:07Z</time>
      </trkpt>
      <trkpt lat="50.29623" lon="5.10084">
        <ele>278.6645373332</ele>
        <time>2017-05-25T15:28:12Z</time>
      </trkpt>
      <trkpt lat="50.29604" lon="5.10057">
        <ele>278.28211403811</ele>
        <time>2017-05-25T15:28:16Z</time>
      </trkpt>
      <trkpt lat="50.29576" lon="5.10025">
        <ele>277.30275397043</ele>
        <time>2017-05-25T15:28:21Z</time>
      </trkpt>
      <trkpt lat="50.2955" lon="5.10006">
        <ele>272.60206249898</ele>
        <time>2017-05-25T15:28:25Z</time>
      </trkpt>
      <trkpt lat="50.2953" lon="5.10001">
        <ele>269.52632046244</ele>
        <time>2017-05-25T15:28:29Z</time>
      </trkpt>
      <trkpt lat="50.295" lon="5.09976">
        <ele>267.59102146189</ele>
        <time>2017-05-25T15:28:34Z</time>
      </trkpt>
      <trkpt lat="50.29476" lon="5.09956">
        <ele>264.40120935511</ele>
        <time>2017-05-25T15:28:38Z</time>
      </trkpt>
      <trkpt lat="50.29449" lon="5.09928">
        <ele>263.60108343949</ele>
        <time>2017-05-25T15:28:43Z</time>
      </trkpt>
      <trkpt lat="50.29424" lon="5.09903">
        <ele>264.70746591445</ele>
        <time>2017-05-25T15:28:48Z</time>
      </trkpt>
      <trkpt lat="50.29398" lon="5.09877">
        <ele>264.36519649994</ele>
        <time>2017-05-25T15:28:52Z</time>
      </trkpt>
      <trkpt lat="50.29372" lon="5.09846">
        <ele>261.4459995254</ele>
        <time>2017-05-25T15:28:57Z</time>
      </trkpt>
      <trkpt lat="50.29349" lon="5.09814">
        <ele>256.75703717831</ele>
        <time>2017-05-25T15:29:02Z</time>
      </trkpt>
      <trkpt lat="50.29338" lon="5.09788">
        <ele>256.79180472401</ele>
        <time>2017-05-25T15:29:06Z</time>
      </trkpt>
      <trkpt lat="50.29354" lon="5.09758">
        <ele>256.523545741</ele>
        <time>2017-05-25T15:29:11Z</time>
      </trkpt>
      <trkpt lat="50.2937" lon="5.09737">
        <ele>257.12536335725</ele>
        <time>2017-05-25T15:29:15Z</time>
      </trkpt>
      <trkpt lat="50.2939" lon="5.09711">
        <ele>259.07403234358</ele>
        <time>2017-05-25T15:29:20Z</time>
      </trkpt>
      <trkpt lat="50.29399" lon="5.09696">
        <ele>261.51333589696</ele>
        <time>2017-05-25T15:29:24Z</time>
      </trkpt>
      <trkpt lat="50.29395" lon="5.09671">
        <ele>261.15829402345</ele>
        <time>2017-05-25T15:29:28Z</time>
      </trkpt>
      <trkpt lat="50.29382" lon="5.09646">
        <ele>263.09923082684</ele>
        <time>2017-05-25T15:29:32Z</time>
      </trkpt>
      <trkpt lat="50.29365" lon="5.09624">
        <ele>262.0331731134</ele>
        <time>2017-05-25T15:29:36Z</time>
      </trkpt>
      <trkpt lat="50.29347" lon="5.09605">
        <ele>258.69837979373</ele>
        <time>2017-05-25T15:29:40Z</time>
      </trkpt>
      <trkpt lat="50.2933" lon="5.09587">
        <ele>257.42095197741</ele>
        <time>2017-05-25T15:29:44Z</time>
      </trkpt>
      <trkpt lat="50.29322" lon="5.09571">
        <ele>256.90507042528</ele>
        <time>2017-05-25T15:29:48Z</time>
      </trkpt>
      <trkpt lat="50.29325" lon="5.09556">
        <ele>256.64370501678</ele>
        <time>2017-05-25T15:29:52Z</time>
      </trkpt>
      <trkpt lat="50.29334" lon="5.0954">
        <ele>256.23852331877</ele>
        <time>2017-05-25T15:29:57Z</time>
      </trkpt>
      <trkpt lat="50.29348" lon="5.09517">
        <ele>253.76126731906</ele>
        <time>2017-05-25T15:30:01Z</time>
      </trkpt>
      <trkpt lat="50.29351" lon="5.09512">
        <ele>252.65107673444</ele>
        <time>2017-05-25T15:30:09Z</time>
      </trkpt>
      <trkpt lat="50.29367" lon="5.09519">
        <ele>253.01964033982</ele>
        <time>2017-05-25T15:30:13Z</time>
      </trkpt>
      <trkpt lat="50.29385" lon="5.09543">
        <ele>259.47332566591</ele>
        <time>2017-05-25T15:30:18Z</time>
      </trkpt>
      <trkpt lat="50.29392" lon="5.09552">
        <ele>260.4293326004</ele>
        <time>2017-05-25T15:30:26Z</time>
      </trkpt>
      <trkpt lat="50.29403" lon="5.09563">
        <ele>260.45993113891</ele>
        <time>2017-05-25T15:30:30Z</time>
      </trkpt>
      <trkpt lat="50.29418" lon="5.09544">
        <ele>259.85843200105</ele>
        <time>2017-05-25T15:32:30Z</time>
      </trkpt>
      <trkpt lat="50.2942" lon="5.09543">
        <ele>265.17410236022</ele>
        <time>2017-05-25T15:32:41Z</time>
      </trkpt>
      <trkpt lat="50.2942" lon="5.09543">
        <ele>265.17410236022</ele>
        <time>2017-05-25T15:32:42Z</time>
      </trkpt>
    </trkseg>
  </trk>
</gpx>